<?xml version="1.0" encoding="UTF-8" standalone="no" ?>
<gpx xmlns="http://www.topografix.com/GPX/1/1" xmlns:xsi="http://www.w3.org/2001/XMLSchema-instance" xsi:schemaLocation="http://www.topografix.com/GPX/1/1 http://www.topografix.com/GPX/1/1/gpx.xsd" version="1.1" creator="VisuGPX - https://www.visugpx.com">
  <metadata>
    <name>Enfer vert 2015</name>
    <desc><![CDATA[Bonne rando, grasse, mais pas trop, dernière montée moins impressionnante qu\'en 2014...]]></desc>
  </metadata>
  <trk>
    <name><![CDATA[2015-04-05 Enfer vert 2015]]></name>
    <trkseg>
      <trkpt lat="50.13861" lon="3.76347">
        <ele>155.87</ele>
        <time>2015-04-05T07:10:44Z</time>
      </trkpt>
      <trkpt lat="50.13865" lon="3.7635">
        <ele>155.87</ele>
        <time>2015-04-05T07:10:45Z</time>
      </trkpt>
      <trkpt lat="50.13872" lon="3.76363">
        <ele>155.39</ele>
        <time>2015-04-05T07:11:08Z</time>
      </trkpt>
      <trkpt lat="50.13867" lon="3.7637">
        <ele>155.39</ele>
        <time>2015-04-05T07:11:12Z</time>
      </trkpt>
      <trkpt lat="50.13865" lon="3.76371">
        <ele>155.39</ele>
        <time>2015-04-05T07:11:13Z</time>
      </trkpt>
      <trkpt lat="50.13822" lon="3.76374">
        <ele>153.95</ele>
        <time>2015-04-05T07:11:26Z</time>
      </trkpt>
      <trkpt lat="50.1378" lon="3.76351">
        <ele>152.99</ele>
        <time>2015-04-05T07:11:38Z</time>
      </trkpt>
      <trkpt lat="50.13755" lon="3.76323">
        <ele>152.03</ele>
        <time>2015-04-05T07:11:47Z</time>
      </trkpt>
      <trkpt lat="50.13702" lon="3.76283">
        <ele>151.54</ele>
        <time>2015-04-05T07:12:03Z</time>
      </trkpt>
      <trkpt lat="50.13651" lon="3.76272">
        <ele>151.54</ele>
        <time>2015-04-05T07:12:19Z</time>
      </trkpt>
      <trkpt lat="50.13608" lon="3.76237">
        <ele>151.06</ele>
        <time>2015-04-05T07:12:32Z</time>
      </trkpt>
      <trkpt lat="50.13564" lon="3.76172">
        <ele>149.62</ele>
        <time>2015-04-05T07:12:47Z</time>
      </trkpt>
      <trkpt lat="50.13558" lon="3.76163">
        <ele>149.62</ele>
        <time>2015-04-05T07:12:49Z</time>
      </trkpt>
      <trkpt lat="50.13555" lon="3.76159">
        <ele>149.14</ele>
        <time>2015-04-05T07:12:50Z</time>
      </trkpt>
      <trkpt lat="50.13552" lon="3.76157">
        <ele>149.14</ele>
        <time>2015-04-05T07:12:51Z</time>
      </trkpt>
      <trkpt lat="50.13549" lon="3.76155">
        <ele>149.14</ele>
        <time>2015-04-05T07:12:52Z</time>
      </trkpt>
      <trkpt lat="50.13546" lon="3.76154">
        <ele>149.14</ele>
        <time>2015-04-05T07:12:53Z</time>
      </trkpt>
      <trkpt lat="50.13543" lon="3.76153">
        <ele>149.14</ele>
        <time>2015-04-05T07:12:54Z</time>
      </trkpt>
      <trkpt lat="50.1354" lon="3.76154">
        <ele>149.14</ele>
        <time>2015-04-05T07:12:55Z</time>
      </trkpt>
      <trkpt lat="50.13537" lon="3.76157">
        <ele>149.14</ele>
        <time>2015-04-05T07:12:56Z</time>
      </trkpt>
      <trkpt lat="50.13536" lon="3.76161">
        <ele>148.66</ele>
        <time>2015-04-05T07:12:57Z</time>
      </trkpt>
      <trkpt lat="50.13535" lon="3.76165">
        <ele>148.66</ele>
        <time>2015-04-05T07:12:58Z</time>
      </trkpt>
      <trkpt lat="50.13534" lon="3.76169">
        <ele>148.66</ele>
        <time>2015-04-05T07:12:59Z</time>
      </trkpt>
      <trkpt lat="50.13534" lon="3.76174">
        <ele>148.66</ele>
        <time>2015-04-05T07:13:00Z</time>
      </trkpt>
      <trkpt lat="50.13533" lon="3.76178">
        <ele>148.66</ele>
        <time>2015-04-05T07:13:01Z</time>
      </trkpt>
      <trkpt lat="50.13533" lon="3.76184">
        <ele>148.66</ele>
        <time>2015-04-05T07:13:02Z</time>
      </trkpt>
      <trkpt lat="50.13523" lon="3.76256">
        <ele>150.1</ele>
        <time>2015-04-05T07:13:16Z</time>
      </trkpt>
      <trkpt lat="50.13518" lon="3.76285">
        <ele>150.1</ele>
        <time>2015-04-05T07:13:25Z</time>
      </trkpt>
      <trkpt lat="50.13517" lon="3.76288">
        <ele>150.1</ele>
        <time>2015-04-05T07:13:26Z</time>
      </trkpt>
      <trkpt lat="50.13516" lon="3.76291">
        <ele>150.1</ele>
        <time>2015-04-05T07:13:27Z</time>
      </trkpt>
      <trkpt lat="50.13511" lon="3.76321">
        <ele>151.06</ele>
        <time>2015-04-05T07:13:41Z</time>
      </trkpt>
      <trkpt lat="50.13508" lon="3.7634">
        <ele>151.06</ele>
        <time>2015-04-05T07:13:50Z</time>
      </trkpt>
      <trkpt lat="50.13506" lon="3.76351">
        <ele>151.54</ele>
        <time>2015-04-05T07:14:05Z</time>
      </trkpt>
      <trkpt lat="50.13506" lon="3.76358">
        <ele>151.54</ele>
        <time>2015-04-05T07:14:13Z</time>
      </trkpt>
      <trkpt lat="50.13507" lon="3.76359">
        <ele>151.54</ele>
        <time>2015-04-05T07:14:14Z</time>
      </trkpt>
      <trkpt lat="50.13508" lon="3.76359">
        <ele>151.54</ele>
        <time>2015-04-05T07:14:15Z</time>
      </trkpt>
      <trkpt lat="50.13515" lon="3.76363">
        <ele>151.54</ele>
        <time>2015-04-05T07:14:23Z</time>
      </trkpt>
      <trkpt lat="50.1352" lon="3.76364">
        <ele>151.54</ele>
        <time>2015-04-05T07:14:35Z</time>
      </trkpt>
      <trkpt lat="50.13521" lon="3.76366">
        <ele>151.54</ele>
        <time>2015-04-05T07:14:45Z</time>
      </trkpt>
      <trkpt lat="50.13523" lon="3.76366">
        <ele>152.03</ele>
        <time>2015-04-05T07:14:47Z</time>
      </trkpt>
      <trkpt lat="50.13549" lon="3.76362">
        <ele>152.51</ele>
        <time>2015-04-05T07:15:00Z</time>
      </trkpt>
      <trkpt lat="50.13577" lon="3.76357">
        <ele>152.99</ele>
        <time>2015-04-05T07:15:12Z</time>
      </trkpt>
      <trkpt lat="50.13629" lon="3.76358">
        <ele>153.95</ele>
        <time>2015-04-05T07:15:31Z</time>
      </trkpt>
      <trkpt lat="50.13672" lon="3.76338">
        <ele>154.91</ele>
        <time>2015-04-05T07:15:45Z</time>
      </trkpt>
      <trkpt lat="50.1369" lon="3.76317">
        <ele>154.91</ele>
        <time>2015-04-05T07:15:52Z</time>
      </trkpt>
      <trkpt lat="50.13684" lon="3.76295">
        <ele>152.99</ele>
        <time>2015-04-05T07:15:57Z</time>
      </trkpt>
      <trkpt lat="50.13699" lon="3.76285">
        <ele>152.99</ele>
        <time>2015-04-05T07:16:02Z</time>
      </trkpt>
      <trkpt lat="50.13703" lon="3.76286">
        <ele>152.99</ele>
        <time>2015-04-05T07:16:03Z</time>
      </trkpt>
      <trkpt lat="50.13706" lon="3.76287">
        <ele>152.99</ele>
        <time>2015-04-05T07:16:04Z</time>
      </trkpt>
      <trkpt lat="50.1371" lon="3.76289">
        <ele>152.99</ele>
        <time>2015-04-05T07:16:05Z</time>
      </trkpt>
      <trkpt lat="50.1375" lon="3.76319">
        <ele>152.99</ele>
        <time>2015-04-05T07:16:18Z</time>
      </trkpt>
      <trkpt lat="50.13794" lon="3.76365">
        <ele>153.95</ele>
        <time>2015-04-05T07:16:33Z</time>
      </trkpt>
      <trkpt lat="50.13849" lon="3.76381">
        <ele>155.87</ele>
        <time>2015-04-05T07:16:49Z</time>
      </trkpt>
      <trkpt lat="50.13899" lon="3.76353">
        <ele>156.35</ele>
        <time>2015-04-05T07:17:04Z</time>
      </trkpt>
      <trkpt lat="50.13939" lon="3.76301">
        <ele>156.35</ele>
        <time>2015-04-05T07:17:19Z</time>
      </trkpt>
      <trkpt lat="50.13964" lon="3.76257">
        <ele>155.39</ele>
        <time>2015-04-05T07:17:29Z</time>
      </trkpt>
      <trkpt lat="50.14009" lon="3.76163">
        <ele>154.43</ele>
        <time>2015-04-05T07:17:47Z</time>
      </trkpt>
      <trkpt lat="50.1406" lon="3.76066">
        <ele>152.99</ele>
        <time>2015-04-05T07:18:03Z</time>
      </trkpt>
      <trkpt lat="50.14117" lon="3.75952">
        <ele>150.58</ele>
        <time>2015-04-05T07:18:20Z</time>
      </trkpt>
      <trkpt lat="50.14125" lon="3.75938">
        <ele>150.1</ele>
        <time>2015-04-05T07:18:22Z</time>
      </trkpt>
      <trkpt lat="50.14181" lon="3.75824">
        <ele>147.7</ele>
        <time>2015-04-05T07:18:38Z</time>
      </trkpt>
      <trkpt lat="50.14243" lon="3.75765">
        <ele>146.74</ele>
        <time>2015-04-05T07:18:52Z</time>
      </trkpt>
      <trkpt lat="50.14284" lon="3.75748">
        <ele>146.74</ele>
        <time>2015-04-05T07:19:00Z</time>
      </trkpt>
      <trkpt lat="50.14289" lon="3.75748">
        <ele>145.78</ele>
        <time>2015-04-05T07:19:01Z</time>
      </trkpt>
      <trkpt lat="50.14378" lon="3.75726">
        <ele>142.89</ele>
        <time>2015-04-05T07:19:16Z</time>
      </trkpt>
      <trkpt lat="50.14461" lon="3.75687">
        <ele>140.49</ele>
        <time>2015-04-05T07:19:31Z</time>
      </trkpt>
      <trkpt lat="50.14566" lon="3.75632">
        <ele>138.57</ele>
        <time>2015-04-05T07:19:50Z</time>
      </trkpt>
      <trkpt lat="50.14587" lon="3.75616">
        <ele>137.13</ele>
        <time>2015-04-05T07:19:54Z</time>
      </trkpt>
      <trkpt lat="50.14593" lon="3.75612">
        <ele>137.13</ele>
        <time>2015-04-05T07:19:55Z</time>
      </trkpt>
      <trkpt lat="50.14679" lon="3.7555">
        <ele>133.28</ele>
        <time>2015-04-05T07:20:10Z</time>
      </trkpt>
      <trkpt lat="50.14735" lon="3.75527">
        <ele>131.36</ele>
        <time>2015-04-05T07:20:18Z</time>
      </trkpt>
      <trkpt lat="50.14825" lon="3.75514">
        <ele>128.47</ele>
        <time>2015-04-05T07:20:31Z</time>
      </trkpt>
      <trkpt lat="50.1483" lon="3.7551">
        <ele>127.99</ele>
        <time>2015-04-05T07:20:32Z</time>
      </trkpt>
      <trkpt lat="50.14834" lon="3.75506">
        <ele>127.99</ele>
        <time>2015-04-05T07:20:33Z</time>
      </trkpt>
      <trkpt lat="50.14837" lon="3.75499">
        <ele>127.99</ele>
        <time>2015-04-05T07:20:34Z</time>
      </trkpt>
      <trkpt lat="50.1484" lon="3.75491">
        <ele>127.99</ele>
        <time>2015-04-05T07:20:35Z</time>
      </trkpt>
      <trkpt lat="50.14841" lon="3.75484">
        <ele>127.99</ele>
        <time>2015-04-05T07:20:36Z</time>
      </trkpt>
      <trkpt lat="50.14843" lon="3.75476">
        <ele>127.99</ele>
        <time>2015-04-05T07:20:37Z</time>
      </trkpt>
      <trkpt lat="50.14847" lon="3.75459">
        <ele>128.47</ele>
        <time>2015-04-05T07:20:39Z</time>
      </trkpt>
      <trkpt lat="50.14855" lon="3.75319">
        <ele>127.99</ele>
        <time>2015-04-05T07:20:55Z</time>
      </trkpt>
      <trkpt lat="50.14857" lon="3.75286">
        <ele>127.51</ele>
        <time>2015-04-05T07:20:59Z</time>
      </trkpt>
      <trkpt lat="50.14857" lon="3.75278">
        <ele>127.51</ele>
        <time>2015-04-05T07:21:00Z</time>
      </trkpt>
      <trkpt lat="50.14871" lon="3.75146">
        <ele>127.51</ele>
        <time>2015-04-05T07:21:17Z</time>
      </trkpt>
      <trkpt lat="50.14881" lon="3.75017">
        <ele>127.51</ele>
        <time>2015-04-05T07:21:33Z</time>
      </trkpt>
      <trkpt lat="50.1488" lon="3.74873">
        <ele>127.51</ele>
        <time>2015-04-05T07:21:50Z</time>
      </trkpt>
      <trkpt lat="50.14881" lon="3.74841">
        <ele>127.51</ele>
        <time>2015-04-05T07:21:54Z</time>
      </trkpt>
      <trkpt lat="50.14884" lon="3.74833">
        <ele>127.99</ele>
        <time>2015-04-05T07:21:55Z</time>
      </trkpt>
      <trkpt lat="50.14886" lon="3.74826">
        <ele>127.99</ele>
        <time>2015-04-05T07:21:56Z</time>
      </trkpt>
      <trkpt lat="50.1489" lon="3.74819">
        <ele>127.51</ele>
        <time>2015-04-05T07:21:57Z</time>
      </trkpt>
      <trkpt lat="50.14894" lon="3.74814">
        <ele>127.99</ele>
        <time>2015-04-05T07:21:58Z</time>
      </trkpt>
      <trkpt lat="50.14898" lon="3.74809">
        <ele>127.99</ele>
        <time>2015-04-05T07:21:59Z</time>
      </trkpt>
      <trkpt lat="50.14903" lon="3.74804">
        <ele>127.99</ele>
        <time>2015-04-05T07:22:00Z</time>
      </trkpt>
      <trkpt lat="50.14991" lon="3.74711">
        <ele>127.99</ele>
        <time>2015-04-05T07:22:20Z</time>
      </trkpt>
      <trkpt lat="50.1506" lon="3.74636">
        <ele>127.99</ele>
        <time>2015-04-05T07:22:36Z</time>
      </trkpt>
      <trkpt lat="50.1513" lon="3.74585">
        <ele>127.99</ele>
        <time>2015-04-05T07:22:51Z</time>
      </trkpt>
      <trkpt lat="50.15185" lon="3.74524">
        <ele>127.99</ele>
        <time>2015-04-05T07:23:04Z</time>
      </trkpt>
      <trkpt lat="50.15188" lon="3.74519">
        <ele>127.99</ele>
        <time>2015-04-05T07:23:05Z</time>
      </trkpt>
      <trkpt lat="50.15193" lon="3.74514">
        <ele>127.99</ele>
        <time>2015-04-05T07:23:06Z</time>
      </trkpt>
      <trkpt lat="50.15255" lon="3.74457">
        <ele>127.99</ele>
        <time>2015-04-05T07:23:20Z</time>
      </trkpt>
      <trkpt lat="50.15325" lon="3.74398">
        <ele>128.47</ele>
        <time>2015-04-05T07:23:36Z</time>
      </trkpt>
      <trkpt lat="50.15334" lon="3.74392">
        <ele>128.47</ele>
        <time>2015-04-05T07:23:38Z</time>
      </trkpt>
      <trkpt lat="50.15338" lon="3.74389">
        <ele>128.47</ele>
        <time>2015-04-05T07:23:39Z</time>
      </trkpt>
      <trkpt lat="50.15343" lon="3.74388">
        <ele>128.47</ele>
        <time>2015-04-05T07:23:40Z</time>
      </trkpt>
      <trkpt lat="50.15348" lon="3.74387">
        <ele>128.47</ele>
        <time>2015-04-05T07:23:41Z</time>
      </trkpt>
      <trkpt lat="50.15352" lon="3.74388">
        <ele>128.47</ele>
        <time>2015-04-05T07:23:42Z</time>
      </trkpt>
      <trkpt lat="50.15357" lon="3.74389">
        <ele>128.47</ele>
        <time>2015-04-05T07:23:43Z</time>
      </trkpt>
      <trkpt lat="50.15362" lon="3.74391">
        <ele>128.47</ele>
        <time>2015-04-05T07:23:44Z</time>
      </trkpt>
      <trkpt lat="50.15425" lon="3.74417">
        <ele>128.47</ele>
        <time>2015-04-05T07:23:58Z</time>
      </trkpt>
      <trkpt lat="50.15491" lon="3.74436">
        <ele>128.47</ele>
        <time>2015-04-05T07:24:11Z</time>
      </trkpt>
      <trkpt lat="50.15499" lon="3.74437">
        <ele>129.43</ele>
        <time>2015-04-05T07:24:13Z</time>
      </trkpt>
      <trkpt lat="50.15504" lon="3.74437">
        <ele>129.43</ele>
        <time>2015-04-05T07:24:14Z</time>
      </trkpt>
      <trkpt lat="50.15508" lon="3.74436">
        <ele>129.43</ele>
        <time>2015-04-05T07:24:15Z</time>
      </trkpt>
      <trkpt lat="50.15522" lon="3.74431">
        <ele>129.92</ele>
        <time>2015-04-05T07:24:18Z</time>
      </trkpt>
      <trkpt lat="50.15526" lon="3.74429">
        <ele>129.92</ele>
        <time>2015-04-05T07:24:19Z</time>
      </trkpt>
      <trkpt lat="50.1553" lon="3.74426">
        <ele>129.92</ele>
        <time>2015-04-05T07:24:20Z</time>
      </trkpt>
      <trkpt lat="50.15534" lon="3.74422">
        <ele>129.92</ele>
        <time>2015-04-05T07:24:21Z</time>
      </trkpt>
      <trkpt lat="50.15537" lon="3.74418">
        <ele>129.92</ele>
        <time>2015-04-05T07:24:22Z</time>
      </trkpt>
      <trkpt lat="50.15611" lon="3.74367">
        <ele>132.32</ele>
        <time>2015-04-05T07:24:39Z</time>
      </trkpt>
      <trkpt lat="50.15692" lon="3.74344">
        <ele>131.84</ele>
        <time>2015-04-05T07:24:56Z</time>
      </trkpt>
      <trkpt lat="50.15773" lon="3.74297">
        <ele>128.95</ele>
        <time>2015-04-05T07:25:10Z</time>
      </trkpt>
      <trkpt lat="50.15779" lon="3.74296">
        <ele>128.95</ele>
        <time>2015-04-05T07:25:11Z</time>
      </trkpt>
      <trkpt lat="50.15784" lon="3.74296">
        <ele>128.95</ele>
        <time>2015-04-05T07:25:12Z</time>
      </trkpt>
      <trkpt lat="50.15789" lon="3.74296">
        <ele>128.95</ele>
        <time>2015-04-05T07:25:13Z</time>
      </trkpt>
      <trkpt lat="50.15793" lon="3.74298">
        <ele>128.95</ele>
        <time>2015-04-05T07:25:14Z</time>
      </trkpt>
      <trkpt lat="50.15798" lon="3.74299">
        <ele>130.88</ele>
        <time>2015-04-05T07:25:15Z</time>
      </trkpt>
      <trkpt lat="50.15802" lon="3.743">
        <ele>130.88</ele>
        <time>2015-04-05T07:25:16Z</time>
      </trkpt>
      <trkpt lat="50.15868" lon="3.74317">
        <ele>130.4</ele>
        <time>2015-04-05T07:25:29Z</time>
      </trkpt>
      <trkpt lat="50.15951" lon="3.74338">
        <ele>129.92</ele>
        <time>2015-04-05T07:25:44Z</time>
      </trkpt>
      <trkpt lat="50.16016" lon="3.74357">
        <ele>131.84</ele>
        <time>2015-04-05T07:25:56Z</time>
      </trkpt>
      <trkpt lat="50.16068" lon="3.74366">
        <ele>132.8</ele>
        <time>2015-04-05T07:26:06Z</time>
      </trkpt>
      <trkpt lat="50.16146" lon="3.74341">
        <ele>133.28</ele>
        <time>2015-04-05T07:26:22Z</time>
      </trkpt>
      <trkpt lat="50.16231" lon="3.74364">
        <ele>133.76</ele>
        <time>2015-04-05T07:26:39Z</time>
      </trkpt>
      <trkpt lat="50.16288" lon="3.74382">
        <ele>133.76</ele>
        <time>2015-04-05T07:26:52Z</time>
      </trkpt>
      <trkpt lat="50.16291" lon="3.74387">
        <ele>134.24</ele>
        <time>2015-04-05T07:26:53Z</time>
      </trkpt>
      <trkpt lat="50.16291" lon="3.74394">
        <ele>134.24</ele>
        <time>2015-04-05T07:26:54Z</time>
      </trkpt>
      <trkpt lat="50.16291" lon="3.744">
        <ele>132.8</ele>
        <time>2015-04-05T07:26:55Z</time>
      </trkpt>
      <trkpt lat="50.1629" lon="3.74407">
        <ele>132.32</ele>
        <time>2015-04-05T07:26:56Z</time>
      </trkpt>
      <trkpt lat="50.16289" lon="3.74413">
        <ele>132.32</ele>
        <time>2015-04-05T07:26:57Z</time>
      </trkpt>
      <trkpt lat="50.16266" lon="3.7451">
        <ele>133.76</ele>
        <time>2015-04-05T07:27:13Z</time>
      </trkpt>
      <trkpt lat="50.16251" lon="3.74584">
        <ele>136.16</ele>
        <time>2015-04-05T07:27:26Z</time>
      </trkpt>
      <trkpt lat="50.16238" lon="3.74645">
        <ele>138.09</ele>
        <time>2015-04-05T07:27:38Z</time>
      </trkpt>
      <trkpt lat="50.16225" lon="3.74704">
        <ele>138.57</ele>
        <time>2015-04-05T07:27:50Z</time>
      </trkpt>
      <trkpt lat="50.16218" lon="3.74736">
        <ele>139.05</ele>
        <time>2015-04-05T07:27:56Z</time>
      </trkpt>
      <trkpt lat="50.16217" lon="3.74742">
        <ele>139.05</ele>
        <time>2015-04-05T07:27:57Z</time>
      </trkpt>
      <trkpt lat="50.16204" lon="3.74807">
        <ele>140.49</ele>
        <time>2015-04-05T07:28:08Z</time>
      </trkpt>
      <trkpt lat="50.16186" lon="3.74893">
        <ele>141.45</ele>
        <time>2015-04-05T07:28:23Z</time>
      </trkpt>
      <trkpt lat="50.16169" lon="3.74974">
        <ele>141.45</ele>
        <time>2015-04-05T07:28:36Z</time>
      </trkpt>
      <trkpt lat="50.16151" lon="3.75052">
        <ele>141.45</ele>
        <time>2015-04-05T07:28:50Z</time>
      </trkpt>
      <trkpt lat="50.16132" lon="3.75141">
        <ele>140.01</ele>
        <time>2015-04-05T07:29:05Z</time>
      </trkpt>
      <trkpt lat="50.16118" lon="3.75208">
        <ele>139.53</ele>
        <time>2015-04-05T07:29:16Z</time>
      </trkpt>
      <trkpt lat="50.1611" lon="3.75238">
        <ele>139.53</ele>
        <time>2015-04-05T07:29:20Z</time>
      </trkpt>
      <trkpt lat="50.16106" lon="3.75261">
        <ele>139.53</ele>
        <time>2015-04-05T07:29:23Z</time>
      </trkpt>
      <trkpt lat="50.16096" lon="3.75307">
        <ele>138.57</ele>
        <time>2015-04-05T07:29:29Z</time>
      </trkpt>
      <trkpt lat="50.16095" lon="3.75314">
        <ele>138.57</ele>
        <time>2015-04-05T07:29:30Z</time>
      </trkpt>
      <trkpt lat="50.16085" lon="3.75355">
        <ele>138.09</ele>
        <time>2015-04-05T07:29:36Z</time>
      </trkpt>
      <trkpt lat="50.16061" lon="3.75462">
        <ele>137.61</ele>
        <time>2015-04-05T07:29:51Z</time>
      </trkpt>
      <trkpt lat="50.16064" lon="3.75507">
        <ele>136.16</ele>
        <time>2015-04-05T07:30:00Z</time>
      </trkpt>
      <trkpt lat="50.16068" lon="3.7551">
        <ele>136.16</ele>
        <time>2015-04-05T07:30:01Z</time>
      </trkpt>
      <trkpt lat="50.16072" lon="3.7551">
        <ele>136.16</ele>
        <time>2015-04-05T07:30:02Z</time>
      </trkpt>
      <trkpt lat="50.1609" lon="3.75509">
        <ele>136.16</ele>
        <time>2015-04-05T07:30:06Z</time>
      </trkpt>
      <trkpt lat="50.16094" lon="3.75509">
        <ele>136.16</ele>
        <time>2015-04-05T07:30:07Z</time>
      </trkpt>
      <trkpt lat="50.16099" lon="3.75509">
        <ele>136.16</ele>
        <time>2015-04-05T07:30:08Z</time>
      </trkpt>
      <trkpt lat="50.1613" lon="3.75506">
        <ele>138.57</ele>
        <time>2015-04-05T07:30:15Z</time>
      </trkpt>
      <trkpt lat="50.162" lon="3.75506">
        <ele>138.57</ele>
        <time>2015-04-05T07:30:31Z</time>
      </trkpt>
      <trkpt lat="50.16208" lon="3.75506">
        <ele>138.57</ele>
        <time>2015-04-05T07:30:33Z</time>
      </trkpt>
      <trkpt lat="50.16212" lon="3.75506">
        <ele>138.57</ele>
        <time>2015-04-05T07:30:34Z</time>
      </trkpt>
      <trkpt lat="50.16277" lon="3.75506">
        <ele>137.13</ele>
        <time>2015-04-05T07:30:47Z</time>
      </trkpt>
      <trkpt lat="50.16356" lon="3.75505">
        <ele>134.72</ele>
        <time>2015-04-05T07:31:00Z</time>
      </trkpt>
      <trkpt lat="50.16453" lon="3.7551">
        <ele>132.8</ele>
        <time>2015-04-05T07:31:13Z</time>
      </trkpt>
      <trkpt lat="50.16459" lon="3.75509">
        <ele>132.8</ele>
        <time>2015-04-05T07:31:14Z</time>
      </trkpt>
      <trkpt lat="50.16515" lon="3.75509">
        <ele>134.72</ele>
        <time>2015-04-05T07:31:23Z</time>
      </trkpt>
      <trkpt lat="50.16551" lon="3.75509">
        <ele>135.68</ele>
        <time>2015-04-05T07:31:30Z</time>
      </trkpt>
      <trkpt lat="50.16557" lon="3.75509">
        <ele>135.68</ele>
        <time>2015-04-05T07:31:31Z</time>
      </trkpt>
      <trkpt lat="50.16592" lon="3.7551">
        <ele>135.68</ele>
        <time>2015-04-05T07:31:38Z</time>
      </trkpt>
      <trkpt lat="50.16598" lon="3.7551">
        <ele>135.68</ele>
        <time>2015-04-05T07:31:39Z</time>
      </trkpt>
      <trkpt lat="50.16667" lon="3.75512">
        <ele>135.68</ele>
        <time>2015-04-05T07:31:52Z</time>
      </trkpt>
      <trkpt lat="50.16673" lon="3.75512">
        <ele>135.68</ele>
        <time>2015-04-05T07:31:53Z</time>
      </trkpt>
      <trkpt lat="50.16682" lon="3.7551">
        <ele>135.68</ele>
        <time>2015-04-05T07:31:55Z</time>
      </trkpt>
      <trkpt lat="50.16687" lon="3.75508">
        <ele>135.68</ele>
        <time>2015-04-05T07:31:56Z</time>
      </trkpt>
      <trkpt lat="50.16691" lon="3.75503">
        <ele>135.68</ele>
        <time>2015-04-05T07:31:57Z</time>
      </trkpt>
      <trkpt lat="50.16694" lon="3.75498">
        <ele>136.16</ele>
        <time>2015-04-05T07:31:58Z</time>
      </trkpt>
      <trkpt lat="50.16696" lon="3.75491">
        <ele>136.16</ele>
        <time>2015-04-05T07:31:59Z</time>
      </trkpt>
      <trkpt lat="50.16697" lon="3.75484">
        <ele>136.16</ele>
        <time>2015-04-05T07:32:00Z</time>
      </trkpt>
      <trkpt lat="50.16697" lon="3.75477">
        <ele>136.16</ele>
        <time>2015-04-05T07:32:01Z</time>
      </trkpt>
      <trkpt lat="50.16697" lon="3.7547">
        <ele>136.16</ele>
        <time>2015-04-05T07:32:02Z</time>
      </trkpt>
      <trkpt lat="50.16698" lon="3.75463">
        <ele>136.16</ele>
        <time>2015-04-05T07:32:03Z</time>
      </trkpt>
      <trkpt lat="50.16698" lon="3.75455">
        <ele>136.16</ele>
        <time>2015-04-05T07:32:04Z</time>
      </trkpt>
      <trkpt lat="50.16697" lon="3.75447">
        <ele>136.16</ele>
        <time>2015-04-05T07:32:05Z</time>
      </trkpt>
      <trkpt lat="50.16697" lon="3.75439">
        <ele>136.16</ele>
        <time>2015-04-05T07:32:06Z</time>
      </trkpt>
      <trkpt lat="50.16697" lon="3.7543">
        <ele>136.16</ele>
        <time>2015-04-05T07:32:07Z</time>
      </trkpt>
      <trkpt lat="50.16697" lon="3.7542">
        <ele>136.16</ele>
        <time>2015-04-05T07:32:08Z</time>
      </trkpt>
      <trkpt lat="50.16697" lon="3.75412">
        <ele>136.16</ele>
        <time>2015-04-05T07:32:09Z</time>
      </trkpt>
      <trkpt lat="50.16698" lon="3.75366">
        <ele>136.16</ele>
        <time>2015-04-05T07:32:15Z</time>
      </trkpt>
      <trkpt lat="50.167" lon="3.7535">
        <ele>137.13</ele>
        <time>2015-04-05T07:32:17Z</time>
      </trkpt>
      <trkpt lat="50.167" lon="3.7532">
        <ele>137.61</ele>
        <time>2015-04-05T07:32:21Z</time>
      </trkpt>
      <trkpt lat="50.167" lon="3.75313">
        <ele>137.61</ele>
        <time>2015-04-05T07:32:22Z</time>
      </trkpt>
      <trkpt lat="50.16703" lon="3.75236">
        <ele>140.01</ele>
        <time>2015-04-05T07:32:34Z</time>
      </trkpt>
      <trkpt lat="50.16704" lon="3.75196">
        <ele>140.49</ele>
        <time>2015-04-05T07:32:40Z</time>
      </trkpt>
      <trkpt lat="50.16704" lon="3.75162">
        <ele>140.97</ele>
        <time>2015-04-05T07:32:45Z</time>
      </trkpt>
      <trkpt lat="50.16704" lon="3.75116">
        <ele>141.93</ele>
        <time>2015-04-05T07:32:52Z</time>
      </trkpt>
      <trkpt lat="50.16703" lon="3.75109">
        <ele>141.93</ele>
        <time>2015-04-05T07:32:53Z</time>
      </trkpt>
      <trkpt lat="50.16704" lon="3.75061">
        <ele>142.41</ele>
        <time>2015-04-05T07:33:00Z</time>
      </trkpt>
      <trkpt lat="50.16704" lon="3.75032">
        <ele>142.41</ele>
        <time>2015-04-05T07:33:04Z</time>
      </trkpt>
      <trkpt lat="50.16704" lon="3.75004">
        <ele>142.89</ele>
        <time>2015-04-05T07:33:08Z</time>
      </trkpt>
      <trkpt lat="50.16708" lon="3.74926">
        <ele>144.34</ele>
        <time>2015-04-05T07:33:20Z</time>
      </trkpt>
      <trkpt lat="50.16707" lon="3.74871">
        <ele>146.26</ele>
        <time>2015-04-05T07:33:29Z</time>
      </trkpt>
      <trkpt lat="50.16707" lon="3.74864">
        <ele>146.74</ele>
        <time>2015-04-05T07:33:30Z</time>
      </trkpt>
      <trkpt lat="50.16708" lon="3.74784">
        <ele>148.66</ele>
        <time>2015-04-05T07:33:43Z</time>
      </trkpt>
      <trkpt lat="50.16708" lon="3.7471">
        <ele>149.14</ele>
        <time>2015-04-05T07:33:56Z</time>
      </trkpt>
      <trkpt lat="50.16707" lon="3.74611">
        <ele>149.14</ele>
        <time>2015-04-05T07:34:08Z</time>
      </trkpt>
      <trkpt lat="50.16706" lon="3.74592">
        <ele>147.7</ele>
        <time>2015-04-05T07:34:10Z</time>
      </trkpt>
      <trkpt lat="50.16706" lon="3.74582">
        <ele>147.7</ele>
        <time>2015-04-05T07:34:11Z</time>
      </trkpt>
      <trkpt lat="50.16707" lon="3.74517">
        <ele>146.74</ele>
        <time>2015-04-05T07:34:18Z</time>
      </trkpt>
      <trkpt lat="50.16708" lon="3.74506">
        <ele>146.74</ele>
        <time>2015-04-05T07:34:19Z</time>
      </trkpt>
      <trkpt lat="50.16708" lon="3.74496">
        <ele>146.74</ele>
        <time>2015-04-05T07:34:20Z</time>
      </trkpt>
      <trkpt lat="50.1671" lon="3.74428">
        <ele>145.78</ele>
        <time>2015-04-05T07:34:27Z</time>
      </trkpt>
      <trkpt lat="50.16712" lon="3.74304">
        <ele>142.89</ele>
        <time>2015-04-05T07:34:40Z</time>
      </trkpt>
      <trkpt lat="50.16712" lon="3.74273">
        <ele>140.97</ele>
        <time>2015-04-05T07:34:43Z</time>
      </trkpt>
      <trkpt lat="50.16712" lon="3.74154">
        <ele>141.45</ele>
        <time>2015-04-05T07:34:55Z</time>
      </trkpt>
      <trkpt lat="50.16712" lon="3.74083">
        <ele>144.34</ele>
        <time>2015-04-05T07:35:08Z</time>
      </trkpt>
      <trkpt lat="50.16734" lon="3.74038">
        <ele>145.3</ele>
        <time>2015-04-05T07:35:19Z</time>
      </trkpt>
      <trkpt lat="50.16734" lon="3.74019">
        <ele>145.3</ele>
        <time>2015-04-05T07:35:22Z</time>
      </trkpt>
      <trkpt lat="50.16712" lon="3.73971">
        <ele>146.74</ele>
        <time>2015-04-05T07:35:33Z</time>
      </trkpt>
      <trkpt lat="50.16689" lon="3.73927">
        <ele>147.7</ele>
        <time>2015-04-05T07:35:42Z</time>
      </trkpt>
      <trkpt lat="50.16685" lon="3.7392">
        <ele>147.7</ele>
        <time>2015-04-05T07:35:43Z</time>
      </trkpt>
      <trkpt lat="50.16669" lon="3.73892">
        <ele>147.7</ele>
        <time>2015-04-05T07:35:47Z</time>
      </trkpt>
      <trkpt lat="50.16651" lon="3.73853">
        <ele>146.74</ele>
        <time>2015-04-05T07:35:52Z</time>
      </trkpt>
      <trkpt lat="50.16617" lon="3.7378">
        <ele>142.89</ele>
        <time>2015-04-05T07:36:00Z</time>
      </trkpt>
      <trkpt lat="50.16612" lon="3.7377">
        <ele>142.89</ele>
        <time>2015-04-05T07:36:01Z</time>
      </trkpt>
      <trkpt lat="50.1657" lon="3.73684">
        <ele>143.37</ele>
        <time>2015-04-05T07:36:11Z</time>
      </trkpt>
      <trkpt lat="50.16544" lon="3.73635">
        <ele>146.74</ele>
        <time>2015-04-05T07:36:21Z</time>
      </trkpt>
      <trkpt lat="50.16514" lon="3.73573">
        <ele>148.66</ele>
        <time>2015-04-05T07:36:34Z</time>
      </trkpt>
      <trkpt lat="50.1647" lon="3.73486">
        <ele>148.66</ele>
        <time>2015-04-05T07:36:49Z</time>
      </trkpt>
      <trkpt lat="50.16459" lon="3.73465">
        <ele>147.7</ele>
        <time>2015-04-05T07:36:52Z</time>
      </trkpt>
      <trkpt lat="50.16421" lon="3.73385">
        <ele>144.34</ele>
        <time>2015-04-05T07:37:03Z</time>
      </trkpt>
      <trkpt lat="50.16387" lon="3.73313">
        <ele>140.97</ele>
        <time>2015-04-05T07:37:11Z</time>
      </trkpt>
      <trkpt lat="50.16349" lon="3.73232">
        <ele>138.09</ele>
        <time>2015-04-05T07:37:22Z</time>
      </trkpt>
      <trkpt lat="50.16306" lon="3.73145">
        <ele>136.16</ele>
        <time>2015-04-05T07:37:33Z</time>
      </trkpt>
      <trkpt lat="50.16236" lon="3.73008">
        <ele>135.68</ele>
        <time>2015-04-05T07:37:47Z</time>
      </trkpt>
      <trkpt lat="50.16216" lon="3.72963">
        <ele>137.13</ele>
        <time>2015-04-05T07:37:53Z</time>
      </trkpt>
      <trkpt lat="50.16211" lon="3.72952">
        <ele>137.61</ele>
        <time>2015-04-05T07:37:55Z</time>
      </trkpt>
      <trkpt lat="50.16197" lon="3.72926">
        <ele>138.57</ele>
        <time>2015-04-05T07:38:00Z</time>
      </trkpt>
      <trkpt lat="50.16189" lon="3.72907">
        <ele>139.53</ele>
        <time>2015-04-05T07:38:03Z</time>
      </trkpt>
      <trkpt lat="50.16187" lon="3.72901">
        <ele>140.01</ele>
        <time>2015-04-05T07:38:04Z</time>
      </trkpt>
      <trkpt lat="50.16156" lon="3.72835">
        <ele>141.93</ele>
        <time>2015-04-05T07:38:16Z</time>
      </trkpt>
      <trkpt lat="50.16132" lon="3.72785">
        <ele>143.37</ele>
        <time>2015-04-05T07:38:26Z</time>
      </trkpt>
      <trkpt lat="50.16129" lon="3.7278">
        <ele>143.37</ele>
        <time>2015-04-05T07:38:27Z</time>
      </trkpt>
      <trkpt lat="50.16085" lon="3.72691">
        <ele>144.82</ele>
        <time>2015-04-05T07:38:43Z</time>
      </trkpt>
      <trkpt lat="50.16077" lon="3.72674">
        <ele>144.82</ele>
        <time>2015-04-05T07:38:46Z</time>
      </trkpt>
      <trkpt lat="50.16074" lon="3.72668">
        <ele>144.82</ele>
        <time>2015-04-05T07:38:47Z</time>
      </trkpt>
      <trkpt lat="50.16071" lon="3.72663">
        <ele>144.82</ele>
        <time>2015-04-05T07:38:48Z</time>
      </trkpt>
      <trkpt lat="50.16068" lon="3.72657">
        <ele>144.82</ele>
        <time>2015-04-05T07:38:49Z</time>
      </trkpt>
      <trkpt lat="50.16066" lon="3.72651">
        <ele>144.82</ele>
        <time>2015-04-05T07:38:50Z</time>
      </trkpt>
      <trkpt lat="50.16021" lon="3.72558">
        <ele>145.3</ele>
        <time>2015-04-05T07:39:06Z</time>
      </trkpt>
      <trkpt lat="50.16018" lon="3.72552">
        <ele>145.3</ele>
        <time>2015-04-05T07:39:07Z</time>
      </trkpt>
      <trkpt lat="50.16015" lon="3.72547">
        <ele>145.3</ele>
        <time>2015-04-05T07:39:08Z</time>
      </trkpt>
      <trkpt lat="50.1596" lon="3.72433">
        <ele>142.41</ele>
        <time>2015-04-05T07:39:26Z</time>
      </trkpt>
      <trkpt lat="50.15908" lon="3.72324">
        <ele>139.05</ele>
        <time>2015-04-05T07:39:39Z</time>
      </trkpt>
      <trkpt lat="50.1589" lon="3.72286">
        <ele>138.57</ele>
        <time>2015-04-05T07:39:44Z</time>
      </trkpt>
      <trkpt lat="50.15887" lon="3.72279">
        <ele>138.57</ele>
        <time>2015-04-05T07:39:45Z</time>
      </trkpt>
      <trkpt lat="50.15884" lon="3.72271">
        <ele>138.57</ele>
        <time>2015-04-05T07:39:46Z</time>
      </trkpt>
      <trkpt lat="50.15862" lon="3.72226">
        <ele>141.93</ele>
        <time>2015-04-05T07:39:52Z</time>
      </trkpt>
      <trkpt lat="50.15854" lon="3.72211">
        <ele>142.41</ele>
        <time>2015-04-05T07:39:54Z</time>
      </trkpt>
      <trkpt lat="50.15835" lon="3.72166">
        <ele>144.82</ele>
        <time>2015-04-05T07:40:00Z</time>
      </trkpt>
      <trkpt lat="50.15809" lon="3.72112">
        <ele>147.7</ele>
        <time>2015-04-05T07:40:11Z</time>
      </trkpt>
      <trkpt lat="50.15781" lon="3.72052">
        <ele>149.14</ele>
        <time>2015-04-05T07:40:24Z</time>
      </trkpt>
      <trkpt lat="50.15742" lon="3.71971">
        <ele>150.1</ele>
        <time>2015-04-05T07:40:41Z</time>
      </trkpt>
      <trkpt lat="50.15711" lon="3.71911">
        <ele>151.54</ele>
        <time>2015-04-05T07:40:57Z</time>
      </trkpt>
      <trkpt lat="50.15699" lon="3.71887">
        <ele>151.06</ele>
        <time>2015-04-05T07:41:11Z</time>
      </trkpt>
      <trkpt lat="50.15696" lon="3.71886">
        <ele>151.06</ele>
        <time>2015-04-05T07:41:22Z</time>
      </trkpt>
      <trkpt lat="50.15693" lon="3.71883">
        <ele>151.06</ele>
        <time>2015-04-05T07:41:27Z</time>
      </trkpt>
      <trkpt lat="50.15692" lon="3.71884">
        <ele>151.54</ele>
        <time>2015-04-05T07:41:28Z</time>
      </trkpt>
      <trkpt lat="50.15689" lon="3.71885">
        <ele>151.54</ele>
        <time>2015-04-05T07:41:30Z</time>
      </trkpt>
      <trkpt lat="50.1569" lon="3.7189">
        <ele>151.54</ele>
        <time>2015-04-05T07:41:44Z</time>
      </trkpt>
      <trkpt lat="50.15684" lon="3.71896">
        <ele>151.54</ele>
        <time>2015-04-05T07:42:04Z</time>
      </trkpt>
      <trkpt lat="50.15676" lon="3.71905">
        <ele>149.62</ele>
        <time>2015-04-05T07:42:10Z</time>
      </trkpt>
      <trkpt lat="50.15675" lon="3.71907">
        <ele>149.14</ele>
        <time>2015-04-05T07:42:11Z</time>
      </trkpt>
      <trkpt lat="50.15668" lon="3.71917">
        <ele>148.66</ele>
        <time>2015-04-05T07:42:19Z</time>
      </trkpt>
      <trkpt lat="50.15633" lon="3.71973">
        <ele>145.78</ele>
        <time>2015-04-05T07:42:28Z</time>
      </trkpt>
      <trkpt lat="50.15568" lon="3.72073">
        <ele>144.34</ele>
        <time>2015-04-05T07:42:42Z</time>
      </trkpt>
      <trkpt lat="50.15513" lon="3.72159">
        <ele>146.26</ele>
        <time>2015-04-05T07:42:54Z</time>
      </trkpt>
      <trkpt lat="50.15498" lon="3.72183">
        <ele>146.74</ele>
        <time>2015-04-05T07:42:58Z</time>
      </trkpt>
      <trkpt lat="50.15463" lon="3.72242">
        <ele>146.74</ele>
        <time>2015-04-05T07:43:09Z</time>
      </trkpt>
      <trkpt lat="50.15406" lon="3.72329">
        <ele>143.37</ele>
        <time>2015-04-05T07:43:23Z</time>
      </trkpt>
      <trkpt lat="50.15339" lon="3.72433">
        <ele>140.49</ele>
        <time>2015-04-05T07:43:38Z</time>
      </trkpt>
      <trkpt lat="50.15317" lon="3.72467">
        <ele>139.53</ele>
        <time>2015-04-05T07:43:43Z</time>
      </trkpt>
      <trkpt lat="50.15313" lon="3.72472">
        <ele>139.53</ele>
        <time>2015-04-05T07:43:44Z</time>
      </trkpt>
      <trkpt lat="50.15308" lon="3.72474">
        <ele>138.57</ele>
        <time>2015-04-05T07:43:45Z</time>
      </trkpt>
      <trkpt lat="50.15301" lon="3.72472">
        <ele>138.57</ele>
        <time>2015-04-05T07:43:46Z</time>
      </trkpt>
      <trkpt lat="50.15298" lon="3.7247">
        <ele>138.57</ele>
        <time>2015-04-05T07:43:47Z</time>
      </trkpt>
      <trkpt lat="50.15295" lon="3.72465">
        <ele>138.57</ele>
        <time>2015-04-05T07:43:48Z</time>
      </trkpt>
      <trkpt lat="50.15292" lon="3.72459">
        <ele>138.57</ele>
        <time>2015-04-05T07:43:49Z</time>
      </trkpt>
      <trkpt lat="50.15286" lon="3.72445">
        <ele>138.57</ele>
        <time>2015-04-05T07:43:51Z</time>
      </trkpt>
      <trkpt lat="50.15282" lon="3.72438">
        <ele>138.57</ele>
        <time>2015-04-05T07:43:52Z</time>
      </trkpt>
      <trkpt lat="50.15278" lon="3.72431">
        <ele>138.57</ele>
        <time>2015-04-05T07:43:53Z</time>
      </trkpt>
      <trkpt lat="50.1523" lon="3.72334">
        <ele>135.68</ele>
        <time>2015-04-05T07:44:06Z</time>
      </trkpt>
      <trkpt lat="50.15212" lon="3.72297">
        <ele>134.24</ele>
        <time>2015-04-05T07:44:11Z</time>
      </trkpt>
      <trkpt lat="50.15208" lon="3.72289">
        <ele>134.24</ele>
        <time>2015-04-05T07:44:12Z</time>
      </trkpt>
      <trkpt lat="50.15205" lon="3.72282">
        <ele>134.24</ele>
        <time>2015-04-05T07:44:13Z</time>
      </trkpt>
      <trkpt lat="50.15201" lon="3.72275">
        <ele>134.24</ele>
        <time>2015-04-05T07:44:14Z</time>
      </trkpt>
      <trkpt lat="50.15197" lon="3.72267">
        <ele>134.24</ele>
        <time>2015-04-05T07:44:15Z</time>
      </trkpt>
      <trkpt lat="50.15166" lon="3.72204">
        <ele>136.16</ele>
        <time>2015-04-05T07:44:24Z</time>
      </trkpt>
      <trkpt lat="50.15144" lon="3.72162">
        <ele>137.13</ele>
        <time>2015-04-05T07:44:30Z</time>
      </trkpt>
      <trkpt lat="50.1514" lon="3.72155">
        <ele>137.61</ele>
        <time>2015-04-05T07:44:31Z</time>
      </trkpt>
      <trkpt lat="50.15118" lon="3.72109">
        <ele>138.09</ele>
        <time>2015-04-05T07:44:37Z</time>
      </trkpt>
      <trkpt lat="50.15115" lon="3.72102">
        <ele>138.57</ele>
        <time>2015-04-05T07:44:38Z</time>
      </trkpt>
      <trkpt lat="50.15083" lon="3.72033">
        <ele>140.49</ele>
        <time>2015-04-05T07:44:48Z</time>
      </trkpt>
      <trkpt lat="50.15074" lon="3.72013">
        <ele>140.49</ele>
        <time>2015-04-05T07:44:51Z</time>
      </trkpt>
      <trkpt lat="50.15051" lon="3.71968">
        <ele>141.45</ele>
        <time>2015-04-05T07:44:58Z</time>
      </trkpt>
      <trkpt lat="50.15048" lon="3.71962">
        <ele>141.45</ele>
        <time>2015-04-05T07:44:59Z</time>
      </trkpt>
      <trkpt lat="50.15045" lon="3.71956">
        <ele>141.45</ele>
        <time>2015-04-05T07:45:00Z</time>
      </trkpt>
      <trkpt lat="50.15033" lon="3.71932">
        <ele>141.93</ele>
        <time>2015-04-05T07:45:04Z</time>
      </trkpt>
      <trkpt lat="50.1503" lon="3.71926">
        <ele>141.93</ele>
        <time>2015-04-05T07:45:05Z</time>
      </trkpt>
      <trkpt lat="50.15024" lon="3.71914">
        <ele>141.93</ele>
        <time>2015-04-05T07:45:07Z</time>
      </trkpt>
      <trkpt lat="50.15021" lon="3.71908">
        <ele>141.93</ele>
        <time>2015-04-05T07:45:08Z</time>
      </trkpt>
      <trkpt lat="50.14999" lon="3.71857">
        <ele>142.41</ele>
        <time>2015-04-05T07:45:17Z</time>
      </trkpt>
      <trkpt lat="50.14957" lon="3.71769">
        <ele>144.34</ele>
        <time>2015-04-05T07:45:34Z</time>
      </trkpt>
      <trkpt lat="50.14929" lon="3.71716">
        <ele>145.3</ele>
        <time>2015-04-05T07:45:45Z</time>
      </trkpt>
      <trkpt lat="50.14927" lon="3.71711">
        <ele>145.3</ele>
        <time>2015-04-05T07:45:46Z</time>
      </trkpt>
      <trkpt lat="50.14924" lon="3.71706">
        <ele>145.3</ele>
        <time>2015-04-05T07:45:47Z</time>
      </trkpt>
      <trkpt lat="50.14922" lon="3.717">
        <ele>145.78</ele>
        <time>2015-04-05T07:45:48Z</time>
      </trkpt>
      <trkpt lat="50.14919" lon="3.71695">
        <ele>145.78</ele>
        <time>2015-04-05T07:45:49Z</time>
      </trkpt>
      <trkpt lat="50.14869" lon="3.7159">
        <ele>146.26</ele>
        <time>2015-04-05T07:46:07Z</time>
      </trkpt>
      <trkpt lat="50.14843" lon="3.71535">
        <ele>146.26</ele>
        <time>2015-04-05T07:46:16Z</time>
      </trkpt>
      <trkpt lat="50.14838" lon="3.7152">
        <ele>146.26</ele>
        <time>2015-04-05T07:46:18Z</time>
      </trkpt>
      <trkpt lat="50.14826" lon="3.71493">
        <ele>144.82</ele>
        <time>2015-04-05T07:46:22Z</time>
      </trkpt>
      <trkpt lat="50.14791" lon="3.71421">
        <ele>142.41</ele>
        <time>2015-04-05T07:46:34Z</time>
      </trkpt>
      <trkpt lat="50.14761" lon="3.71361">
        <ele>143.37</ele>
        <time>2015-04-05T07:46:47Z</time>
      </trkpt>
      <trkpt lat="50.14735" lon="3.71307">
        <ele>145.3</ele>
        <time>2015-04-05T07:46:59Z</time>
      </trkpt>
      <trkpt lat="50.1471" lon="3.71253">
        <ele>146.74</ele>
        <time>2015-04-05T07:47:11Z</time>
      </trkpt>
      <trkpt lat="50.14703" lon="3.71238">
        <ele>147.7</ele>
        <time>2015-04-05T07:47:14Z</time>
      </trkpt>
      <trkpt lat="50.14701" lon="3.71232">
        <ele>147.7</ele>
        <time>2015-04-05T07:47:15Z</time>
      </trkpt>
      <trkpt lat="50.14698" lon="3.71227">
        <ele>148.18</ele>
        <time>2015-04-05T07:47:16Z</time>
      </trkpt>
      <trkpt lat="50.14668" lon="3.71169">
        <ele>148.18</ele>
        <time>2015-04-05T07:47:26Z</time>
      </trkpt>
      <trkpt lat="50.14666" lon="3.71163">
        <ele>148.18</ele>
        <time>2015-04-05T07:47:27Z</time>
      </trkpt>
      <trkpt lat="50.14652" lon="3.71133">
        <ele>148.66</ele>
        <time>2015-04-05T07:47:32Z</time>
      </trkpt>
      <trkpt lat="50.14616" lon="3.71059">
        <ele>150.58</ele>
        <time>2015-04-05T07:47:46Z</time>
      </trkpt>
      <trkpt lat="50.14614" lon="3.71054">
        <ele>150.58</ele>
        <time>2015-04-05T07:47:47Z</time>
      </trkpt>
      <trkpt lat="50.14582" lon="3.70987">
        <ele>152.51</ele>
        <time>2015-04-05T07:47:59Z</time>
      </trkpt>
      <trkpt lat="50.14556" lon="3.70929">
        <ele>152.03</ele>
        <time>2015-04-05T07:48:10Z</time>
      </trkpt>
      <trkpt lat="50.14524" lon="3.7086">
        <ele>150.1</ele>
        <time>2015-04-05T07:48:22Z</time>
      </trkpt>
      <trkpt lat="50.14482" lon="3.70772">
        <ele>148.66</ele>
        <time>2015-04-05T07:48:35Z</time>
      </trkpt>
      <trkpt lat="50.1448" lon="3.70766">
        <ele>148.66</ele>
        <time>2015-04-05T07:48:36Z</time>
      </trkpt>
      <trkpt lat="50.14464" lon="3.70729">
        <ele>150.1</ele>
        <time>2015-04-05T07:48:42Z</time>
      </trkpt>
      <trkpt lat="50.14447" lon="3.70694">
        <ele>152.03</ele>
        <time>2015-04-05T07:48:48Z</time>
      </trkpt>
      <trkpt lat="50.14442" lon="3.70682">
        <ele>152.51</ele>
        <time>2015-04-05T07:48:50Z</time>
      </trkpt>
      <trkpt lat="50.14439" lon="3.70676">
        <ele>152.99</ele>
        <time>2015-04-05T07:48:51Z</time>
      </trkpt>
      <trkpt lat="50.14437" lon="3.70671">
        <ele>152.99</ele>
        <time>2015-04-05T07:48:52Z</time>
      </trkpt>
      <trkpt lat="50.14434" lon="3.70666">
        <ele>152.99</ele>
        <time>2015-04-05T07:48:53Z</time>
      </trkpt>
      <trkpt lat="50.14432" lon="3.70661">
        <ele>153.47</ele>
        <time>2015-04-05T07:48:54Z</time>
      </trkpt>
      <trkpt lat="50.1443" lon="3.70657">
        <ele>153.95</ele>
        <time>2015-04-05T07:48:55Z</time>
      </trkpt>
      <trkpt lat="50.14402" lon="3.70593">
        <ele>154.91</ele>
        <time>2015-04-05T07:49:09Z</time>
      </trkpt>
      <trkpt lat="50.14372" lon="3.70531">
        <ele>156.35</ele>
        <time>2015-04-05T07:49:24Z</time>
      </trkpt>
      <trkpt lat="50.14344" lon="3.70473">
        <ele>157.31</ele>
        <time>2015-04-05T07:49:39Z</time>
      </trkpt>
      <trkpt lat="50.1432" lon="3.70423">
        <ele>157.31</ele>
        <time>2015-04-05T07:49:52Z</time>
      </trkpt>
      <trkpt lat="50.14287" lon="3.7036">
        <ele>156.35</ele>
        <time>2015-04-05T07:50:07Z</time>
      </trkpt>
      <trkpt lat="50.14277" lon="3.70336">
        <ele>157.79</ele>
        <time>2015-04-05T07:50:13Z</time>
      </trkpt>
      <trkpt lat="50.14259" lon="3.70295">
        <ele>159.24</ele>
        <time>2015-04-05T07:50:25Z</time>
      </trkpt>
      <trkpt lat="50.14246" lon="3.70265">
        <ele>159.24</ele>
        <time>2015-04-05T07:50:36Z</time>
      </trkpt>
      <trkpt lat="50.14228" lon="3.7023">
        <ele>159.24</ele>
        <time>2015-04-05T07:50:48Z</time>
      </trkpt>
      <trkpt lat="50.14218" lon="3.70209">
        <ele>159.72</ele>
        <time>2015-04-05T07:50:55Z</time>
      </trkpt>
      <trkpt lat="50.14217" lon="3.70205">
        <ele>159.72</ele>
        <time>2015-04-05T07:50:56Z</time>
      </trkpt>
      <trkpt lat="50.14216" lon="3.70201">
        <ele>159.72</ele>
        <time>2015-04-05T07:50:57Z</time>
      </trkpt>
      <trkpt lat="50.14215" lon="3.70197">
        <ele>159.72</ele>
        <time>2015-04-05T07:50:58Z</time>
      </trkpt>
      <trkpt lat="50.14213" lon="3.70194">
        <ele>159.72</ele>
        <time>2015-04-05T07:50:59Z</time>
      </trkpt>
      <trkpt lat="50.14196" lon="3.70165">
        <ele>159.72</ele>
        <time>2015-04-05T07:51:09Z</time>
      </trkpt>
      <trkpt lat="50.14191" lon="3.70168">
        <ele>158.75</ele>
        <time>2015-04-05T07:51:11Z</time>
      </trkpt>
      <trkpt lat="50.14168" lon="3.70187">
        <ele>157.31</ele>
        <time>2015-04-05T07:51:19Z</time>
      </trkpt>
      <trkpt lat="50.14152" lon="3.70206">
        <ele>156.35</ele>
        <time>2015-04-05T07:51:28Z</time>
      </trkpt>
      <trkpt lat="50.14135" lon="3.70241">
        <ele>154.91</ele>
        <time>2015-04-05T07:51:39Z</time>
      </trkpt>
      <trkpt lat="50.14129" lon="3.70251">
        <ele>154.43</ele>
        <time>2015-04-05T07:51:43Z</time>
      </trkpt>
      <trkpt lat="50.14125" lon="3.70264">
        <ele>154.43</ele>
        <time>2015-04-05T07:51:48Z</time>
      </trkpt>
      <trkpt lat="50.1412" lon="3.70271">
        <ele>154.43</ele>
        <time>2015-04-05T07:51:51Z</time>
      </trkpt>
      <trkpt lat="50.14109" lon="3.70298">
        <ele>153.47</ele>
        <time>2015-04-05T07:52:02Z</time>
      </trkpt>
      <trkpt lat="50.14103" lon="3.70305">
        <ele>152.99</ele>
        <time>2015-04-05T07:52:05Z</time>
      </trkpt>
      <trkpt lat="50.14081" lon="3.70326">
        <ele>151.54</ele>
        <time>2015-04-05T07:52:17Z</time>
      </trkpt>
      <trkpt lat="50.14079" lon="3.70329">
        <ele>151.54</ele>
        <time>2015-04-05T07:52:20Z</time>
      </trkpt>
      <trkpt lat="50.14077" lon="3.70333">
        <ele>151.54</ele>
        <time>2015-04-05T07:52:23Z</time>
      </trkpt>
      <trkpt lat="50.14063" lon="3.70344">
        <ele>151.06</ele>
        <time>2015-04-05T07:52:30Z</time>
      </trkpt>
      <trkpt lat="50.14053" lon="3.70354">
        <ele>149.62</ele>
        <time>2015-04-05T07:52:38Z</time>
      </trkpt>
      <trkpt lat="50.14052" lon="3.70358">
        <ele>149.62</ele>
        <time>2015-04-05T07:52:50Z</time>
      </trkpt>
      <trkpt lat="50.14045" lon="3.70371">
        <ele>149.62</ele>
        <time>2015-04-05T07:53:03Z</time>
      </trkpt>
      <trkpt lat="50.14041" lon="3.70376">
        <ele>150.1</ele>
        <time>2015-04-05T07:53:06Z</time>
      </trkpt>
      <trkpt lat="50.14035" lon="3.70386">
        <ele>150.1</ele>
        <time>2015-04-05T07:53:10Z</time>
      </trkpt>
      <trkpt lat="50.14026" lon="3.70405">
        <ele>148.66</ele>
        <time>2015-04-05T07:53:21Z</time>
      </trkpt>
      <trkpt lat="50.14022" lon="3.70428">
        <ele>148.66</ele>
        <time>2015-04-05T07:53:37Z</time>
      </trkpt>
      <trkpt lat="50.14019" lon="3.70453">
        <ele>148.66</ele>
        <time>2015-04-05T07:53:53Z</time>
      </trkpt>
      <trkpt lat="50.14011" lon="3.7049">
        <ele>147.7</ele>
        <time>2015-04-05T07:54:05Z</time>
      </trkpt>
      <trkpt lat="50.1401" lon="3.70496">
        <ele>147.7</ele>
        <time>2015-04-05T07:54:07Z</time>
      </trkpt>
      <trkpt lat="50.14001" lon="3.70522">
        <ele>146.74</ele>
        <time>2015-04-05T07:54:15Z</time>
      </trkpt>
      <trkpt lat="50.13994" lon="3.70534">
        <ele>146.26</ele>
        <time>2015-04-05T07:54:18Z</time>
      </trkpt>
      <trkpt lat="50.13989" lon="3.70546">
        <ele>145.78</ele>
        <time>2015-04-05T07:54:22Z</time>
      </trkpt>
      <trkpt lat="50.13978" lon="3.70579">
        <ele>145.3</ele>
        <time>2015-04-05T07:54:33Z</time>
      </trkpt>
      <trkpt lat="50.13973" lon="3.70591">
        <ele>144.82</ele>
        <time>2015-04-05T07:54:40Z</time>
      </trkpt>
      <trkpt lat="50.1396" lon="3.70607">
        <ele>143.85</ele>
        <time>2015-04-05T07:54:52Z</time>
      </trkpt>
      <trkpt lat="50.13948" lon="3.70619">
        <ele>143.37</ele>
        <time>2015-04-05T07:54:58Z</time>
      </trkpt>
      <trkpt lat="50.13944" lon="3.70631">
        <ele>142.89</ele>
        <time>2015-04-05T07:55:02Z</time>
      </trkpt>
      <trkpt lat="50.13943" lon="3.70656">
        <ele>142.89</ele>
        <time>2015-04-05T07:55:11Z</time>
      </trkpt>
      <trkpt lat="50.13944" lon="3.70671">
        <ele>142.41</ele>
        <time>2015-04-05T07:55:20Z</time>
      </trkpt>
      <trkpt lat="50.13945" lon="3.70674">
        <ele>142.41</ele>
        <time>2015-04-05T07:55:22Z</time>
      </trkpt>
      <trkpt lat="50.13945" lon="3.70691">
        <ele>142.41</ele>
        <time>2015-04-05T07:55:30Z</time>
      </trkpt>
      <trkpt lat="50.1395" lon="3.7072">
        <ele>141.93</ele>
        <time>2015-04-05T07:55:42Z</time>
      </trkpt>
      <trkpt lat="50.13948" lon="3.70733">
        <ele>141.45</ele>
        <time>2015-04-05T07:55:49Z</time>
      </trkpt>
      <trkpt lat="50.13936" lon="3.70735">
        <ele>141.45</ele>
        <time>2015-04-05T07:55:58Z</time>
      </trkpt>
      <trkpt lat="50.13934" lon="3.70733">
        <ele>142.89</ele>
        <time>2015-04-05T07:56:00Z</time>
      </trkpt>
      <trkpt lat="50.13919" lon="3.70717">
        <ele>141.45</ele>
        <time>2015-04-05T07:56:17Z</time>
      </trkpt>
      <trkpt lat="50.13918" lon="3.70716">
        <ele>141.45</ele>
        <time>2015-04-05T07:56:18Z</time>
      </trkpt>
      <trkpt lat="50.13895" lon="3.70694">
        <ele>142.89</ele>
        <time>2015-04-05T07:56:32Z</time>
      </trkpt>
      <trkpt lat="50.13867" lon="3.70666">
        <ele>143.85</ele>
        <time>2015-04-05T07:56:46Z</time>
      </trkpt>
      <trkpt lat="50.13841" lon="3.70641">
        <ele>144.82</ele>
        <time>2015-04-05T07:56:56Z</time>
      </trkpt>
      <trkpt lat="50.13808" lon="3.70615">
        <ele>146.26</ele>
        <time>2015-04-05T07:57:10Z</time>
      </trkpt>
      <trkpt lat="50.1377" lon="3.70581">
        <ele>146.26</ele>
        <time>2015-04-05T07:57:22Z</time>
      </trkpt>
      <trkpt lat="50.13762" lon="3.70573">
        <ele>144.82</ele>
        <time>2015-04-05T07:57:24Z</time>
      </trkpt>
      <trkpt lat="50.13734" lon="3.70545">
        <ele>143.85</ele>
        <time>2015-04-05T07:57:31Z</time>
      </trkpt>
      <trkpt lat="50.13731" lon="3.70538">
        <ele>143.37</ele>
        <time>2015-04-05T07:57:32Z</time>
      </trkpt>
      <trkpt lat="50.1373" lon="3.7053">
        <ele>143.37</ele>
        <time>2015-04-05T07:57:33Z</time>
      </trkpt>
      <trkpt lat="50.13721" lon="3.70426">
        <ele>143.85</ele>
        <time>2015-04-05T07:57:48Z</time>
      </trkpt>
      <trkpt lat="50.13708" lon="3.70366">
        <ele>143.85</ele>
        <time>2015-04-05T07:58:02Z</time>
      </trkpt>
      <trkpt lat="50.13692" lon="3.70314">
        <ele>145.3</ele>
        <time>2015-04-05T07:58:14Z</time>
      </trkpt>
      <trkpt lat="50.13675" lon="3.70251">
        <ele>146.74</ele>
        <time>2015-04-05T07:58:29Z</time>
      </trkpt>
      <trkpt lat="50.13664" lon="3.70211">
        <ele>148.18</ele>
        <time>2015-04-05T07:58:40Z</time>
      </trkpt>
      <trkpt lat="50.13649" lon="3.70144">
        <ele>150.58</ele>
        <time>2015-04-05T07:58:53Z</time>
      </trkpt>
      <trkpt lat="50.13627" lon="3.7009">
        <ele>152.51</ele>
        <time>2015-04-05T07:59:07Z</time>
      </trkpt>
      <trkpt lat="50.13598" lon="3.70025">
        <ele>153.95</ele>
        <time>2015-04-05T07:59:23Z</time>
      </trkpt>
      <trkpt lat="50.13564" lon="3.69908">
        <ele>153.95</ele>
        <time>2015-04-05T07:59:44Z</time>
      </trkpt>
      <trkpt lat="50.13553" lon="3.69863">
        <ele>153.95</ele>
        <time>2015-04-05T07:59:51Z</time>
      </trkpt>
      <trkpt lat="50.13552" lon="3.69857">
        <ele>153.95</ele>
        <time>2015-04-05T07:59:52Z</time>
      </trkpt>
      <trkpt lat="50.13528" lon="3.69764">
        <ele>153.95</ele>
        <time>2015-04-05T08:00:05Z</time>
      </trkpt>
      <trkpt lat="50.13516" lon="3.69724">
        <ele>153.95</ele>
        <time>2015-04-05T08:00:11Z</time>
      </trkpt>
      <trkpt lat="50.13469" lon="3.69613">
        <ele>154.91</ele>
        <time>2015-04-05T08:00:30Z</time>
      </trkpt>
      <trkpt lat="50.13421" lon="3.695">
        <ele>154.91</ele>
        <time>2015-04-05T08:00:47Z</time>
      </trkpt>
      <trkpt lat="50.13386" lon="3.69389">
        <ele>156.35</ele>
        <time>2015-04-05T08:01:03Z</time>
      </trkpt>
      <trkpt lat="50.13361" lon="3.69307">
        <ele>155.39</ele>
        <time>2015-04-05T08:01:14Z</time>
      </trkpt>
      <trkpt lat="50.13357" lon="3.6929">
        <ele>154.43</ele>
        <time>2015-04-05T08:01:16Z</time>
      </trkpt>
      <trkpt lat="50.13317" lon="3.69146">
        <ele>152.03</ele>
        <time>2015-04-05T08:01:32Z</time>
      </trkpt>
      <trkpt lat="50.13271" lon="3.69047">
        <ele>151.06</ele>
        <time>2015-04-05T08:01:44Z</time>
      </trkpt>
      <trkpt lat="50.13266" lon="3.69042">
        <ele>151.06</ele>
        <time>2015-04-05T08:01:45Z</time>
      </trkpt>
      <trkpt lat="50.13254" lon="3.69022">
        <ele>151.06</ele>
        <time>2015-04-05T08:01:48Z</time>
      </trkpt>
      <trkpt lat="50.13162" lon="3.68891">
        <ele>148.66</ele>
        <time>2015-04-05T08:02:07Z</time>
      </trkpt>
      <trkpt lat="50.13118" lon="3.68829">
        <ele>146.74</ele>
        <time>2015-04-05T08:02:15Z</time>
      </trkpt>
      <trkpt lat="50.13056" lon="3.687">
        <ele>143.37</ele>
        <time>2015-04-05T08:02:28Z</time>
      </trkpt>
      <trkpt lat="50.1299" lon="3.68561">
        <ele>142.41</ele>
        <time>2015-04-05T08:02:43Z</time>
      </trkpt>
      <trkpt lat="50.12935" lon="3.68431">
        <ele>142.41</ele>
        <time>2015-04-05T08:02:59Z</time>
      </trkpt>
      <trkpt lat="50.12886" lon="3.68262">
        <ele>142.41</ele>
        <time>2015-04-05T08:03:18Z</time>
      </trkpt>
      <trkpt lat="50.12871" lon="3.6819">
        <ele>141.93</ele>
        <time>2015-04-05T08:03:26Z</time>
      </trkpt>
      <trkpt lat="50.12868" lon="3.68181">
        <ele>141.93</ele>
        <time>2015-04-05T08:03:27Z</time>
      </trkpt>
      <trkpt lat="50.12824" lon="3.68084">
        <ele>141.93</ele>
        <time>2015-04-05T08:03:40Z</time>
      </trkpt>
      <trkpt lat="50.12823" lon="3.68076">
        <ele>141.93</ele>
        <time>2015-04-05T08:03:41Z</time>
      </trkpt>
      <trkpt lat="50.12824" lon="3.68067">
        <ele>141.93</ele>
        <time>2015-04-05T08:03:42Z</time>
      </trkpt>
      <trkpt lat="50.12826" lon="3.6806">
        <ele>141.93</ele>
        <time>2015-04-05T08:03:43Z</time>
      </trkpt>
      <trkpt lat="50.1283" lon="3.68055">
        <ele>141.93</ele>
        <time>2015-04-05T08:03:44Z</time>
      </trkpt>
      <trkpt lat="50.12835" lon="3.68052">
        <ele>141.93</ele>
        <time>2015-04-05T08:03:45Z</time>
      </trkpt>
      <trkpt lat="50.1284" lon="3.68048">
        <ele>141.93</ele>
        <time>2015-04-05T08:03:46Z</time>
      </trkpt>
      <trkpt lat="50.12862" lon="3.68033">
        <ele>142.89</ele>
        <time>2015-04-05T08:03:51Z</time>
      </trkpt>
      <trkpt lat="50.12871" lon="3.68028">
        <ele>143.85</ele>
        <time>2015-04-05T08:03:53Z</time>
      </trkpt>
      <trkpt lat="50.12881" lon="3.68021">
        <ele>144.34</ele>
        <time>2015-04-05T08:03:55Z</time>
      </trkpt>
      <trkpt lat="50.12886" lon="3.68019">
        <ele>144.34</ele>
        <time>2015-04-05T08:03:56Z</time>
      </trkpt>
      <trkpt lat="50.1289" lon="3.6802">
        <ele>144.34</ele>
        <time>2015-04-05T08:03:57Z</time>
      </trkpt>
      <trkpt lat="50.12894" lon="3.68023">
        <ele>144.82</ele>
        <time>2015-04-05T08:03:58Z</time>
      </trkpt>
      <trkpt lat="50.12897" lon="3.68027">
        <ele>145.3</ele>
        <time>2015-04-05T08:03:59Z</time>
      </trkpt>
      <trkpt lat="50.12898" lon="3.68032">
        <ele>145.3</ele>
        <time>2015-04-05T08:04:00Z</time>
      </trkpt>
      <trkpt lat="50.12899" lon="3.68038">
        <ele>145.3</ele>
        <time>2015-04-05T08:04:01Z</time>
      </trkpt>
      <trkpt lat="50.12899" lon="3.68043">
        <ele>145.78</ele>
        <time>2015-04-05T08:04:02Z</time>
      </trkpt>
      <trkpt lat="50.12906" lon="3.68102">
        <ele>146.26</ele>
        <time>2015-04-05T08:04:11Z</time>
      </trkpt>
      <trkpt lat="50.12907" lon="3.68109">
        <ele>146.26</ele>
        <time>2015-04-05T08:04:12Z</time>
      </trkpt>
      <trkpt lat="50.12945" lon="3.68232">
        <ele>146.26</ele>
        <time>2015-04-05T08:04:31Z</time>
      </trkpt>
      <trkpt lat="50.12962" lon="3.68282">
        <ele>146.74</ele>
        <time>2015-04-05T08:04:39Z</time>
      </trkpt>
      <trkpt lat="50.12964" lon="3.6829">
        <ele>146.74</ele>
        <time>2015-04-05T08:04:40Z</time>
      </trkpt>
      <trkpt lat="50.12963" lon="3.68297">
        <ele>146.74</ele>
        <time>2015-04-05T08:04:41Z</time>
      </trkpt>
      <trkpt lat="50.1296" lon="3.68305">
        <ele>146.74</ele>
        <time>2015-04-05T08:04:42Z</time>
      </trkpt>
      <trkpt lat="50.12956" lon="3.68309">
        <ele>146.74</ele>
        <time>2015-04-05T08:04:43Z</time>
      </trkpt>
      <trkpt lat="50.1295" lon="3.68313">
        <ele>146.74</ele>
        <time>2015-04-05T08:04:44Z</time>
      </trkpt>
      <trkpt lat="50.12946" lon="3.68315">
        <ele>147.22</ele>
        <time>2015-04-05T08:04:45Z</time>
      </trkpt>
      <trkpt lat="50.1294" lon="3.68317">
        <ele>147.22</ele>
        <time>2015-04-05T08:04:46Z</time>
      </trkpt>
      <trkpt lat="50.12935" lon="3.68319">
        <ele>147.7</ele>
        <time>2015-04-05T08:04:47Z</time>
      </trkpt>
      <trkpt lat="50.12927" lon="3.68323">
        <ele>147.7</ele>
        <time>2015-04-05T08:04:49Z</time>
      </trkpt>
      <trkpt lat="50.12913" lon="3.6833">
        <ele>148.66</ele>
        <time>2015-04-05T08:04:53Z</time>
      </trkpt>
      <trkpt lat="50.12909" lon="3.68332">
        <ele>148.66</ele>
        <time>2015-04-05T08:04:54Z</time>
      </trkpt>
      <trkpt lat="50.12897" lon="3.68342">
        <ele>149.14</ele>
        <time>2015-04-05T08:04:57Z</time>
      </trkpt>
      <trkpt lat="50.12852" lon="3.68416">
        <ele>147.22</ele>
        <time>2015-04-05T08:05:08Z</time>
      </trkpt>
      <trkpt lat="50.12828" lon="3.68509">
        <ele>143.85</ele>
        <time>2015-04-05T08:05:16Z</time>
      </trkpt>
      <trkpt lat="50.12808" lon="3.68593">
        <ele>140.49</ele>
        <time>2015-04-05T08:05:23Z</time>
      </trkpt>
      <trkpt lat="50.12804" lon="3.68603">
        <ele>139.53</ele>
        <time>2015-04-05T08:05:24Z</time>
      </trkpt>
      <trkpt lat="50.128" lon="3.6861">
        <ele>139.05</ele>
        <time>2015-04-05T08:05:25Z</time>
      </trkpt>
      <trkpt lat="50.12795" lon="3.68614">
        <ele>138.57</ele>
        <time>2015-04-05T08:05:26Z</time>
      </trkpt>
      <trkpt lat="50.12789" lon="3.68615">
        <ele>138.09</ele>
        <time>2015-04-05T08:05:27Z</time>
      </trkpt>
      <trkpt lat="50.12785" lon="3.68612">
        <ele>138.09</ele>
        <time>2015-04-05T08:05:28Z</time>
      </trkpt>
      <trkpt lat="50.12781" lon="3.68606">
        <ele>138.09</ele>
        <time>2015-04-05T08:05:29Z</time>
      </trkpt>
      <trkpt lat="50.12777" lon="3.68598">
        <ele>138.09</ele>
        <time>2015-04-05T08:05:30Z</time>
      </trkpt>
      <trkpt lat="50.12774" lon="3.68591">
        <ele>138.09</ele>
        <time>2015-04-05T08:05:31Z</time>
      </trkpt>
      <trkpt lat="50.12759" lon="3.6856">
        <ele>138.57</ele>
        <time>2015-04-05T08:05:35Z</time>
      </trkpt>
      <trkpt lat="50.12751" lon="3.68545">
        <ele>137.61</ele>
        <time>2015-04-05T08:05:37Z</time>
      </trkpt>
      <trkpt lat="50.12747" lon="3.68538">
        <ele>137.61</ele>
        <time>2015-04-05T08:05:38Z</time>
      </trkpt>
      <trkpt lat="50.12743" lon="3.68532">
        <ele>137.61</ele>
        <time>2015-04-05T08:05:39Z</time>
      </trkpt>
      <trkpt lat="50.1274" lon="3.68524">
        <ele>137.61</ele>
        <time>2015-04-05T08:05:40Z</time>
      </trkpt>
      <trkpt lat="50.12738" lon="3.68516">
        <ele>137.13</ele>
        <time>2015-04-05T08:05:41Z</time>
      </trkpt>
      <trkpt lat="50.12739" lon="3.68508">
        <ele>137.13</ele>
        <time>2015-04-05T08:05:42Z</time>
      </trkpt>
      <trkpt lat="50.12741" lon="3.68501">
        <ele>137.13</ele>
        <time>2015-04-05T08:05:43Z</time>
      </trkpt>
      <trkpt lat="50.12745" lon="3.68495">
        <ele>137.13</ele>
        <time>2015-04-05T08:05:44Z</time>
      </trkpt>
      <trkpt lat="50.1275" lon="3.68491">
        <ele>137.13</ele>
        <time>2015-04-05T08:05:45Z</time>
      </trkpt>
      <trkpt lat="50.12755" lon="3.68486">
        <ele>137.13</ele>
        <time>2015-04-05T08:05:46Z</time>
      </trkpt>
      <trkpt lat="50.12775" lon="3.68468">
        <ele>138.57</ele>
        <time>2015-04-05T08:05:50Z</time>
      </trkpt>
      <trkpt lat="50.12838" lon="3.68421">
        <ele>140.49</ele>
        <time>2015-04-05T08:06:04Z</time>
      </trkpt>
      <trkpt lat="50.12848" lon="3.6842">
        <ele>140.49</ele>
        <time>2015-04-05T08:06:06Z</time>
      </trkpt>
      <trkpt lat="50.12853" lon="3.68421">
        <ele>141.45</ele>
        <time>2015-04-05T08:06:07Z</time>
      </trkpt>
      <trkpt lat="50.12858" lon="3.68422">
        <ele>141.45</ele>
        <time>2015-04-05T08:06:08Z</time>
      </trkpt>
      <trkpt lat="50.12874" lon="3.68426">
        <ele>141.93</ele>
        <time>2015-04-05T08:06:12Z</time>
      </trkpt>
      <trkpt lat="50.12878" lon="3.6843">
        <ele>141.93</ele>
        <time>2015-04-05T08:06:13Z</time>
      </trkpt>
      <trkpt lat="50.1288" lon="3.68434">
        <ele>141.93</ele>
        <time>2015-04-05T08:06:14Z</time>
      </trkpt>
      <trkpt lat="50.12882" lon="3.68441">
        <ele>141.93</ele>
        <time>2015-04-05T08:06:15Z</time>
      </trkpt>
      <trkpt lat="50.12884" lon="3.68446">
        <ele>141.93</ele>
        <time>2015-04-05T08:06:16Z</time>
      </trkpt>
      <trkpt lat="50.12886" lon="3.68452">
        <ele>141.93</ele>
        <time>2015-04-05T08:06:17Z</time>
      </trkpt>
      <trkpt lat="50.12915" lon="3.68543">
        <ele>142.89</ele>
        <time>2015-04-05T08:06:32Z</time>
      </trkpt>
      <trkpt lat="50.12937" lon="3.68614">
        <ele>141.45</ele>
        <time>2015-04-05T08:06:42Z</time>
      </trkpt>
      <trkpt lat="50.12943" lon="3.68634">
        <ele>141.45</ele>
        <time>2015-04-05T08:06:45Z</time>
      </trkpt>
      <trkpt lat="50.12943" lon="3.68641">
        <ele>140.97</ele>
        <time>2015-04-05T08:06:46Z</time>
      </trkpt>
      <trkpt lat="50.12941" lon="3.68647">
        <ele>140.97</ele>
        <time>2015-04-05T08:06:47Z</time>
      </trkpt>
      <trkpt lat="50.12937" lon="3.68652">
        <ele>140.97</ele>
        <time>2015-04-05T08:06:48Z</time>
      </trkpt>
      <trkpt lat="50.12934" lon="3.68657">
        <ele>140.97</ele>
        <time>2015-04-05T08:06:49Z</time>
      </trkpt>
      <trkpt lat="50.1292" lon="3.68675">
        <ele>140.97</ele>
        <time>2015-04-05T08:06:53Z</time>
      </trkpt>
      <trkpt lat="50.12909" lon="3.68688">
        <ele>140.01</ele>
        <time>2015-04-05T08:06:56Z</time>
      </trkpt>
      <trkpt lat="50.12895" lon="3.6871">
        <ele>139.53</ele>
        <time>2015-04-05T08:07:00Z</time>
      </trkpt>
      <trkpt lat="50.12891" lon="3.68713">
        <ele>139.53</ele>
        <time>2015-04-05T08:07:01Z</time>
      </trkpt>
      <trkpt lat="50.12885" lon="3.68713">
        <ele>139.53</ele>
        <time>2015-04-05T08:07:02Z</time>
      </trkpt>
      <trkpt lat="50.1288" lon="3.6871">
        <ele>139.05</ele>
        <time>2015-04-05T08:07:03Z</time>
      </trkpt>
      <trkpt lat="50.12876" lon="3.68706">
        <ele>139.05</ele>
        <time>2015-04-05T08:07:04Z</time>
      </trkpt>
      <trkpt lat="50.12871" lon="3.68701">
        <ele>139.05</ele>
        <time>2015-04-05T08:07:05Z</time>
      </trkpt>
      <trkpt lat="50.12849" lon="3.68678">
        <ele>137.61</ele>
        <time>2015-04-05T08:07:11Z</time>
      </trkpt>
      <trkpt lat="50.12846" lon="3.68679">
        <ele>137.61</ele>
        <time>2015-04-05T08:07:12Z</time>
      </trkpt>
      <trkpt lat="50.12837" lon="3.68693">
        <ele>137.61</ele>
        <time>2015-04-05T08:07:15Z</time>
      </trkpt>
      <trkpt lat="50.12826" lon="3.68706">
        <ele>137.61</ele>
        <time>2015-04-05T08:07:18Z</time>
      </trkpt>
      <trkpt lat="50.12812" lon="3.68726">
        <ele>137.61</ele>
        <time>2015-04-05T08:07:22Z</time>
      </trkpt>
      <trkpt lat="50.12767" lon="3.6879">
        <ele>136.64</ele>
        <time>2015-04-05T08:07:37Z</time>
      </trkpt>
      <trkpt lat="50.12759" lon="3.68801">
        <ele>136.64</ele>
        <time>2015-04-05T08:07:41Z</time>
      </trkpt>
      <trkpt lat="50.12753" lon="3.68809">
        <ele>136.64</ele>
        <time>2015-04-05T08:07:46Z</time>
      </trkpt>
      <trkpt lat="50.12754" lon="3.6882">
        <ele>136.64</ele>
        <time>2015-04-05T08:08:00Z</time>
      </trkpt>
      <trkpt lat="50.12748" lon="3.68826">
        <ele>136.64</ele>
        <time>2015-04-05T08:08:12Z</time>
      </trkpt>
      <trkpt lat="50.12747" lon="3.68824">
        <ele>136.64</ele>
        <time>2015-04-05T08:08:39Z</time>
      </trkpt>
      <trkpt lat="50.12746" lon="3.6882">
        <ele>136.64</ele>
        <time>2015-04-05T08:09:05Z</time>
      </trkpt>
      <trkpt lat="50.12744" lon="3.68814">
        <ele>137.13</ele>
        <time>2015-04-05T08:09:40Z</time>
      </trkpt>
      <trkpt lat="50.12742" lon="3.68811">
        <ele>137.13</ele>
        <time>2015-04-05T08:10:17Z</time>
      </trkpt>
      <trkpt lat="50.12741" lon="3.68813">
        <ele>137.61</ele>
        <time>2015-04-05T08:10:56Z</time>
      </trkpt>
      <trkpt lat="50.12741" lon="3.68811">
        <ele>137.61</ele>
        <time>2015-04-05T08:11:29Z</time>
      </trkpt>
      <trkpt lat="50.1274" lon="3.68809">
        <ele>138.09</ele>
        <time>2015-04-05T08:12:10Z</time>
      </trkpt>
      <trkpt lat="50.12739" lon="3.68809">
        <ele>138.09</ele>
        <time>2015-04-05T08:12:40Z</time>
      </trkpt>
      <trkpt lat="50.12741" lon="3.68809">
        <ele>138.09</ele>
        <time>2015-04-05T08:13:20Z</time>
      </trkpt>
      <trkpt lat="50.12743" lon="3.68811">
        <ele>138.09</ele>
        <time>2015-04-05T08:13:51Z</time>
      </trkpt>
      <trkpt lat="50.12744" lon="3.6881">
        <ele>138.09</ele>
        <time>2015-04-05T08:13:58Z</time>
      </trkpt>
      <trkpt lat="50.12746" lon="3.68801">
        <ele>138.09</ele>
        <time>2015-04-05T08:14:05Z</time>
      </trkpt>
      <trkpt lat="50.1276" lon="3.68795">
        <ele>138.09</ele>
        <time>2015-04-05T08:14:21Z</time>
      </trkpt>
      <trkpt lat="50.12764" lon="3.68786">
        <ele>138.09</ele>
        <time>2015-04-05T08:14:34Z</time>
      </trkpt>
      <trkpt lat="50.12765" lon="3.68787">
        <ele>138.57</ele>
        <time>2015-04-05T08:15:02Z</time>
      </trkpt>
      <trkpt lat="50.12765" lon="3.68788">
        <ele>138.57</ele>
        <time>2015-04-05T08:15:23Z</time>
      </trkpt>
      <trkpt lat="50.12764" lon="3.68789">
        <ele>138.57</ele>
        <time>2015-04-05T08:15:52Z</time>
      </trkpt>
      <trkpt lat="50.12763" lon="3.6879">
        <ele>138.57</ele>
        <time>2015-04-05T08:16:17Z</time>
      </trkpt>
      <trkpt lat="50.12763" lon="3.68792">
        <ele>138.57</ele>
        <time>2015-04-05T08:16:40Z</time>
      </trkpt>
      <trkpt lat="50.12764" lon="3.68792">
        <ele>138.57</ele>
        <time>2015-04-05T08:17:03Z</time>
      </trkpt>
      <trkpt lat="50.12764" lon="3.68791">
        <ele>138.57</ele>
        <time>2015-04-05T08:17:31Z</time>
      </trkpt>
      <trkpt lat="50.12765" lon="3.68791">
        <ele>138.57</ele>
        <time>2015-04-05T08:17:55Z</time>
      </trkpt>
      <trkpt lat="50.12764" lon="3.68791">
        <ele>137.61</ele>
        <time>2015-04-05T08:18:18Z</time>
      </trkpt>
      <trkpt lat="50.12762" lon="3.68792">
        <ele>137.61</ele>
        <time>2015-04-05T08:18:31Z</time>
      </trkpt>
      <trkpt lat="50.1276" lon="3.68788">
        <ele>137.61</ele>
        <time>2015-04-05T08:18:42Z</time>
      </trkpt>
      <trkpt lat="50.1276" lon="3.68788">
        <ele>137.61</ele>
        <time>2015-04-05T08:19:01Z</time>
      </trkpt>
      <trkpt lat="50.12759" lon="3.68792">
        <ele>137.61</ele>
        <time>2015-04-05T08:19:09Z</time>
      </trkpt>
      <trkpt lat="50.12762" lon="3.68795">
        <ele>137.61</ele>
        <time>2015-04-05T08:19:22Z</time>
      </trkpt>
      <trkpt lat="50.12762" lon="3.68795">
        <ele>137.61</ele>
        <time>2015-04-05T08:19:41Z</time>
      </trkpt>
      <trkpt lat="50.12763" lon="3.68794">
        <ele>137.61</ele>
        <time>2015-04-05T08:19:59Z</time>
      </trkpt>
      <trkpt lat="50.1276" lon="3.68794">
        <ele>137.13</ele>
        <time>2015-04-05T08:20:25Z</time>
      </trkpt>
      <trkpt lat="50.12761" lon="3.68794">
        <ele>137.13</ele>
        <time>2015-04-05T08:20:48Z</time>
      </trkpt>
      <trkpt lat="50.12764" lon="3.6879">
        <ele>137.13</ele>
        <time>2015-04-05T08:21:01Z</time>
      </trkpt>
      <trkpt lat="50.12764" lon="3.6879">
        <ele>137.13</ele>
        <time>2015-04-05T08:21:30Z</time>
      </trkpt>
      <trkpt lat="50.12762" lon="3.68797">
        <ele>137.13</ele>
        <time>2015-04-05T08:21:45Z</time>
      </trkpt>
      <trkpt lat="50.12761" lon="3.68798">
        <ele>137.13</ele>
        <time>2015-04-05T08:21:46Z</time>
      </trkpt>
      <trkpt lat="50.12756" lon="3.68803">
        <ele>137.13</ele>
        <time>2015-04-05T08:21:52Z</time>
      </trkpt>
      <trkpt lat="50.12752" lon="3.68801">
        <ele>137.13</ele>
        <time>2015-04-05T08:22:06Z</time>
      </trkpt>
      <trkpt lat="50.12751" lon="3.68807">
        <ele>137.13</ele>
        <time>2015-04-05T08:22:29Z</time>
      </trkpt>
      <trkpt lat="50.12751" lon="3.68806">
        <ele>137.61</ele>
        <time>2015-04-05T08:22:53Z</time>
      </trkpt>
      <trkpt lat="50.1275" lon="3.68802">
        <ele>137.61</ele>
        <time>2015-04-05T08:23:15Z</time>
      </trkpt>
      <trkpt lat="50.12749" lon="3.68803">
        <ele>137.13</ele>
        <time>2015-04-05T08:23:39Z</time>
      </trkpt>
      <trkpt lat="50.12742" lon="3.68787">
        <ele>137.13</ele>
        <time>2015-04-05T08:23:46Z</time>
      </trkpt>
      <trkpt lat="50.12722" lon="3.68752">
        <ele>137.13</ele>
        <time>2015-04-05T08:24:01Z</time>
      </trkpt>
      <trkpt lat="50.1272" lon="3.68753">
        <ele>138.57</ele>
        <time>2015-04-05T08:24:02Z</time>
      </trkpt>
      <trkpt lat="50.12717" lon="3.68755">
        <ele>138.57</ele>
        <time>2015-04-05T08:24:03Z</time>
      </trkpt>
      <trkpt lat="50.12692" lon="3.68794">
        <ele>139.53</ele>
        <time>2015-04-05T08:24:15Z</time>
      </trkpt>
      <trkpt lat="50.12691" lon="3.68802">
        <ele>139.53</ele>
        <time>2015-04-05T08:24:17Z</time>
      </trkpt>
      <trkpt lat="50.12692" lon="3.68806">
        <ele>139.53</ele>
        <time>2015-04-05T08:24:18Z</time>
      </trkpt>
      <trkpt lat="50.12694" lon="3.6881">
        <ele>139.53</ele>
        <time>2015-04-05T08:24:19Z</time>
      </trkpt>
      <trkpt lat="50.12721" lon="3.68857">
        <ele>138.09</ele>
        <time>2015-04-05T08:24:29Z</time>
      </trkpt>
      <trkpt lat="50.12752" lon="3.68897">
        <ele>137.61</ele>
        <time>2015-04-05T08:24:39Z</time>
      </trkpt>
      <trkpt lat="50.12756" lon="3.689">
        <ele>138.09</ele>
        <time>2015-04-05T08:24:40Z</time>
      </trkpt>
      <trkpt lat="50.12759" lon="3.68905">
        <ele>137.13</ele>
        <time>2015-04-05T08:24:41Z</time>
      </trkpt>
      <trkpt lat="50.12796" lon="3.68959">
        <ele>136.16</ele>
        <time>2015-04-05T08:24:53Z</time>
      </trkpt>
      <trkpt lat="50.12815" lon="3.68984">
        <ele>136.16</ele>
        <time>2015-04-05T08:24:59Z</time>
      </trkpt>
      <trkpt lat="50.12819" lon="3.68987">
        <ele>136.16</ele>
        <time>2015-04-05T08:25:00Z</time>
      </trkpt>
      <trkpt lat="50.1284" lon="3.6898">
        <ele>136.64</ele>
        <time>2015-04-05T08:25:06Z</time>
      </trkpt>
      <trkpt lat="50.12844" lon="3.68975">
        <ele>136.64</ele>
        <time>2015-04-05T08:25:07Z</time>
      </trkpt>
      <trkpt lat="50.1285" lon="3.68967">
        <ele>136.64</ele>
        <time>2015-04-05T08:25:09Z</time>
      </trkpt>
      <trkpt lat="50.12872" lon="3.68933">
        <ele>136.64</ele>
        <time>2015-04-05T08:25:16Z</time>
      </trkpt>
      <trkpt lat="50.12875" lon="3.68928">
        <ele>136.64</ele>
        <time>2015-04-05T08:25:17Z</time>
      </trkpt>
      <trkpt lat="50.12878" lon="3.68924">
        <ele>136.64</ele>
        <time>2015-04-05T08:25:18Z</time>
      </trkpt>
      <trkpt lat="50.12888" lon="3.68909">
        <ele>136.16</ele>
        <time>2015-04-05T08:25:28Z</time>
      </trkpt>
      <trkpt lat="50.12887" lon="3.68909">
        <ele>136.16</ele>
        <time>2015-04-05T08:25:41Z</time>
      </trkpt>
      <trkpt lat="50.12889" lon="3.68911">
        <ele>136.16</ele>
        <time>2015-04-05T08:26:03Z</time>
      </trkpt>
      <trkpt lat="50.12888" lon="3.68913">
        <ele>136.16</ele>
        <time>2015-04-05T08:26:25Z</time>
      </trkpt>
      <trkpt lat="50.1289" lon="3.68914">
        <ele>136.16</ele>
        <time>2015-04-05T08:26:42Z</time>
      </trkpt>
      <trkpt lat="50.12901" lon="3.68957">
        <ele>136.16</ele>
        <time>2015-04-05T08:26:52Z</time>
      </trkpt>
      <trkpt lat="50.12915" lon="3.69019">
        <ele>137.61</ele>
        <time>2015-04-05T08:27:04Z</time>
      </trkpt>
      <trkpt lat="50.12944" lon="3.69101">
        <ele>138.09</ele>
        <time>2015-04-05T08:27:19Z</time>
      </trkpt>
      <trkpt lat="50.12975" lon="3.69171">
        <ele>138.57</ele>
        <time>2015-04-05T08:27:33Z</time>
      </trkpt>
      <trkpt lat="50.13013" lon="3.69272">
        <ele>138.57</ele>
        <time>2015-04-05T08:27:51Z</time>
      </trkpt>
      <trkpt lat="50.13024" lon="3.69316">
        <ele>137.13</ele>
        <time>2015-04-05T08:27:58Z</time>
      </trkpt>
      <trkpt lat="50.13038" lon="3.69353">
        <ele>137.13</ele>
        <time>2015-04-05T08:28:04Z</time>
      </trkpt>
      <trkpt lat="50.13083" lon="3.69428">
        <ele>137.13</ele>
        <time>2015-04-05T08:28:19Z</time>
      </trkpt>
      <trkpt lat="50.13093" lon="3.69448">
        <ele>137.13</ele>
        <time>2015-04-05T08:28:23Z</time>
      </trkpt>
      <trkpt lat="50.13095" lon="3.69453">
        <ele>136.64</ele>
        <time>2015-04-05T08:28:24Z</time>
      </trkpt>
      <trkpt lat="50.13122" lon="3.69545">
        <ele>136.64</ele>
        <time>2015-04-05T08:28:39Z</time>
      </trkpt>
      <trkpt lat="50.13136" lon="3.69601">
        <ele>136.64</ele>
        <time>2015-04-05T08:28:48Z</time>
      </trkpt>
      <trkpt lat="50.13137" lon="3.69608">
        <ele>136.64</ele>
        <time>2015-04-05T08:28:49Z</time>
      </trkpt>
      <trkpt lat="50.13166" lon="3.69728">
        <ele>136.64</ele>
        <time>2015-04-05T08:29:07Z</time>
      </trkpt>
      <trkpt lat="50.13167" lon="3.69734">
        <ele>136.64</ele>
        <time>2015-04-05T08:29:08Z</time>
      </trkpt>
      <trkpt lat="50.13168" lon="3.69741">
        <ele>136.64</ele>
        <time>2015-04-05T08:29:09Z</time>
      </trkpt>
      <trkpt lat="50.1317" lon="3.69748">
        <ele>136.64</ele>
        <time>2015-04-05T08:29:10Z</time>
      </trkpt>
      <trkpt lat="50.13171" lon="3.69755">
        <ele>136.64</ele>
        <time>2015-04-05T08:29:11Z</time>
      </trkpt>
      <trkpt lat="50.13173" lon="3.69761">
        <ele>136.64</ele>
        <time>2015-04-05T08:29:12Z</time>
      </trkpt>
      <trkpt lat="50.13181" lon="3.69795">
        <ele>136.64</ele>
        <time>2015-04-05T08:29:17Z</time>
      </trkpt>
      <trkpt lat="50.13184" lon="3.698">
        <ele>136.64</ele>
        <time>2015-04-05T08:29:18Z</time>
      </trkpt>
      <trkpt lat="50.13192" lon="3.69819">
        <ele>136.64</ele>
        <time>2015-04-05T08:29:21Z</time>
      </trkpt>
      <trkpt lat="50.13194" lon="3.69826">
        <ele>136.64</ele>
        <time>2015-04-05T08:29:22Z</time>
      </trkpt>
      <trkpt lat="50.13195" lon="3.69832">
        <ele>136.64</ele>
        <time>2015-04-05T08:29:23Z</time>
      </trkpt>
      <trkpt lat="50.13212" lon="3.69908">
        <ele>136.64</ele>
        <time>2015-04-05T08:29:36Z</time>
      </trkpt>
      <trkpt lat="50.13213" lon="3.69915">
        <ele>136.64</ele>
        <time>2015-04-05T08:29:37Z</time>
      </trkpt>
      <trkpt lat="50.13214" lon="3.69922">
        <ele>137.61</ele>
        <time>2015-04-05T08:29:38Z</time>
      </trkpt>
      <trkpt lat="50.13216" lon="3.69929">
        <ele>137.61</ele>
        <time>2015-04-05T08:29:39Z</time>
      </trkpt>
      <trkpt lat="50.13217" lon="3.69935">
        <ele>137.61</ele>
        <time>2015-04-05T08:29:40Z</time>
      </trkpt>
      <trkpt lat="50.13218" lon="3.69942">
        <ele>138.57</ele>
        <time>2015-04-05T08:29:41Z</time>
      </trkpt>
      <trkpt lat="50.13238" lon="3.70017">
        <ele>138.09</ele>
        <time>2015-04-05T08:29:52Z</time>
      </trkpt>
      <trkpt lat="50.13245" lon="3.7004">
        <ele>137.13</ele>
        <time>2015-04-05T08:29:55Z</time>
      </trkpt>
      <trkpt lat="50.13253" lon="3.70065">
        <ele>136.16</ele>
        <time>2015-04-05T08:29:59Z</time>
      </trkpt>
      <trkpt lat="50.13255" lon="3.70071">
        <ele>136.16</ele>
        <time>2015-04-05T08:30:00Z</time>
      </trkpt>
      <trkpt lat="50.13273" lon="3.70135">
        <ele>136.16</ele>
        <time>2015-04-05T08:30:12Z</time>
      </trkpt>
      <trkpt lat="50.13292" lon="3.70183">
        <ele>136.16</ele>
        <time>2015-04-05T08:30:21Z</time>
      </trkpt>
      <trkpt lat="50.13294" lon="3.70188">
        <ele>136.16</ele>
        <time>2015-04-05T08:30:22Z</time>
      </trkpt>
      <trkpt lat="50.13295" lon="3.70193">
        <ele>136.16</ele>
        <time>2015-04-05T08:30:23Z</time>
      </trkpt>
      <trkpt lat="50.13318" lon="3.7025">
        <ele>136.16</ele>
        <time>2015-04-05T08:30:36Z</time>
      </trkpt>
      <trkpt lat="50.13332" lon="3.70301">
        <ele>136.16</ele>
        <time>2015-04-05T08:30:47Z</time>
      </trkpt>
      <trkpt lat="50.13335" lon="3.70363">
        <ele>136.16</ele>
        <time>2015-04-05T08:31:00Z</time>
      </trkpt>
      <trkpt lat="50.13345" lon="3.70431">
        <ele>137.13</ele>
        <time>2015-04-05T08:31:13Z</time>
      </trkpt>
      <trkpt lat="50.13356" lon="3.70492">
        <ele>137.13</ele>
        <time>2015-04-05T08:31:25Z</time>
      </trkpt>
      <trkpt lat="50.1339" lon="3.70562">
        <ele>137.61</ele>
        <time>2015-04-05T08:31:40Z</time>
      </trkpt>
      <trkpt lat="50.13399" lon="3.70579">
        <ele>137.61</ele>
        <time>2015-04-05T08:31:43Z</time>
      </trkpt>
      <trkpt lat="50.13419" lon="3.70646">
        <ele>137.61</ele>
        <time>2015-04-05T08:31:56Z</time>
      </trkpt>
      <trkpt lat="50.13437" lon="3.70719">
        <ele>137.61</ele>
        <time>2015-04-05T08:32:10Z</time>
      </trkpt>
      <trkpt lat="50.13466" lon="3.70778">
        <ele>136.16</ele>
        <time>2015-04-05T08:32:22Z</time>
      </trkpt>
      <trkpt lat="50.13495" lon="3.70808">
        <ele>135.68</ele>
        <time>2015-04-05T08:32:34Z</time>
      </trkpt>
      <trkpt lat="50.13536" lon="3.70832">
        <ele>135.68</ele>
        <time>2015-04-05T08:32:48Z</time>
      </trkpt>
      <trkpt lat="50.13565" lon="3.70873">
        <ele>135.68</ele>
        <time>2015-04-05T08:33:01Z</time>
      </trkpt>
      <trkpt lat="50.13565" lon="3.70877">
        <ele>135.68</ele>
        <time>2015-04-05T08:33:02Z</time>
      </trkpt>
      <trkpt lat="50.13565" lon="3.70882">
        <ele>135.68</ele>
        <time>2015-04-05T08:33:03Z</time>
      </trkpt>
      <trkpt lat="50.13563" lon="3.70885">
        <ele>135.68</ele>
        <time>2015-04-05T08:33:04Z</time>
      </trkpt>
      <trkpt lat="50.13561" lon="3.70888">
        <ele>135.68</ele>
        <time>2015-04-05T08:33:05Z</time>
      </trkpt>
      <trkpt lat="50.13558" lon="3.7089">
        <ele>135.68</ele>
        <time>2015-04-05T08:33:06Z</time>
      </trkpt>
      <trkpt lat="50.13555" lon="3.70892">
        <ele>135.68</ele>
        <time>2015-04-05T08:33:07Z</time>
      </trkpt>
      <trkpt lat="50.13538" lon="3.70931">
        <ele>137.13</ele>
        <time>2015-04-05T08:33:18Z</time>
      </trkpt>
      <trkpt lat="50.13538" lon="3.70996">
        <ele>137.13</ele>
        <time>2015-04-05T08:33:30Z</time>
      </trkpt>
      <trkpt lat="50.13538" lon="3.7105">
        <ele>137.13</ele>
        <time>2015-04-05T08:33:43Z</time>
      </trkpt>
      <trkpt lat="50.13531" lon="3.71101">
        <ele>137.13</ele>
        <time>2015-04-05T08:33:55Z</time>
      </trkpt>
      <trkpt lat="50.1352" lon="3.71145">
        <ele>137.13</ele>
        <time>2015-04-05T08:34:08Z</time>
      </trkpt>
      <trkpt lat="50.13498" lon="3.71192">
        <ele>137.13</ele>
        <time>2015-04-05T08:34:23Z</time>
      </trkpt>
      <trkpt lat="50.13485" lon="3.71219">
        <ele>137.13</ele>
        <time>2015-04-05T08:34:35Z</time>
      </trkpt>
      <trkpt lat="50.13484" lon="3.71221">
        <ele>137.13</ele>
        <time>2015-04-05T08:34:36Z</time>
      </trkpt>
      <trkpt lat="50.13465" lon="3.71258">
        <ele>137.13</ele>
        <time>2015-04-05T08:34:49Z</time>
      </trkpt>
      <trkpt lat="50.13443" lon="3.71292">
        <ele>137.13</ele>
        <time>2015-04-05T08:35:03Z</time>
      </trkpt>
      <trkpt lat="50.13413" lon="3.7134">
        <ele>137.13</ele>
        <time>2015-04-05T08:35:17Z</time>
      </trkpt>
      <trkpt lat="50.13389" lon="3.71382">
        <ele>137.13</ele>
        <time>2015-04-05T08:35:30Z</time>
      </trkpt>
      <trkpt lat="50.13374" lon="3.71442">
        <ele>137.61</ele>
        <time>2015-04-05T08:35:44Z</time>
      </trkpt>
      <trkpt lat="50.13364" lon="3.71497">
        <ele>137.61</ele>
        <time>2015-04-05T08:35:58Z</time>
      </trkpt>
      <trkpt lat="50.13361" lon="3.71545">
        <ele>137.61</ele>
        <time>2015-04-05T08:36:09Z</time>
      </trkpt>
      <trkpt lat="50.13376" lon="3.71604">
        <ele>137.61</ele>
        <time>2015-04-05T08:36:22Z</time>
      </trkpt>
      <trkpt lat="50.13388" lon="3.71639">
        <ele>137.61</ele>
        <time>2015-04-05T08:36:34Z</time>
      </trkpt>
      <trkpt lat="50.13388" lon="3.71644">
        <ele>137.61</ele>
        <time>2015-04-05T08:36:36Z</time>
      </trkpt>
      <trkpt lat="50.13388" lon="3.71653">
        <ele>137.61</ele>
        <time>2015-04-05T08:36:39Z</time>
      </trkpt>
      <trkpt lat="50.13389" lon="3.71656">
        <ele>137.61</ele>
        <time>2015-04-05T08:36:40Z</time>
      </trkpt>
      <trkpt lat="50.1339" lon="3.7166">
        <ele>137.61</ele>
        <time>2015-04-05T08:36:41Z</time>
      </trkpt>
      <trkpt lat="50.13414" lon="3.71697">
        <ele>138.09</ele>
        <time>2015-04-05T08:36:54Z</time>
      </trkpt>
      <trkpt lat="50.13441" lon="3.7174">
        <ele>138.09</ele>
        <time>2015-04-05T08:37:10Z</time>
      </trkpt>
      <trkpt lat="50.13462" lon="3.71797">
        <ele>137.61</ele>
        <time>2015-04-05T08:37:24Z</time>
      </trkpt>
      <trkpt lat="50.13478" lon="3.71882">
        <ele>137.13</ele>
        <time>2015-04-05T08:37:43Z</time>
      </trkpt>
      <trkpt lat="50.13491" lon="3.71952">
        <ele>137.13</ele>
        <time>2015-04-05T08:37:57Z</time>
      </trkpt>
      <trkpt lat="50.13533" lon="3.7199">
        <ele>137.13</ele>
        <time>2015-04-05T08:38:11Z</time>
      </trkpt>
      <trkpt lat="50.1356" lon="3.72002">
        <ele>137.13</ele>
        <time>2015-04-05T08:38:18Z</time>
      </trkpt>
      <trkpt lat="50.13564" lon="3.72002">
        <ele>137.13</ele>
        <time>2015-04-05T08:38:19Z</time>
      </trkpt>
      <trkpt lat="50.13591" lon="3.71995">
        <ele>139.05</ele>
        <time>2015-04-05T08:38:25Z</time>
      </trkpt>
      <trkpt lat="50.13594" lon="3.71993">
        <ele>139.05</ele>
        <time>2015-04-05T08:38:26Z</time>
      </trkpt>
      <trkpt lat="50.13623" lon="3.71967">
        <ele>137.61</ele>
        <time>2015-04-05T08:38:34Z</time>
      </trkpt>
      <trkpt lat="50.13672" lon="3.71882">
        <ele>137.61</ele>
        <time>2015-04-05T08:38:50Z</time>
      </trkpt>
      <trkpt lat="50.13731" lon="3.71778">
        <ele>137.61</ele>
        <time>2015-04-05T08:39:09Z</time>
      </trkpt>
      <trkpt lat="50.13737" lon="3.71766">
        <ele>137.61</ele>
        <time>2015-04-05T08:39:11Z</time>
      </trkpt>
      <trkpt lat="50.13744" lon="3.71747">
        <ele>137.61</ele>
        <time>2015-04-05T08:39:14Z</time>
      </trkpt>
      <trkpt lat="50.13747" lon="3.71741">
        <ele>137.61</ele>
        <time>2015-04-05T08:39:15Z</time>
      </trkpt>
      <trkpt lat="50.13756" lon="3.7172">
        <ele>137.13</ele>
        <time>2015-04-05T08:39:18Z</time>
      </trkpt>
      <trkpt lat="50.13759" lon="3.71714">
        <ele>137.13</ele>
        <time>2015-04-05T08:39:19Z</time>
      </trkpt>
      <trkpt lat="50.13763" lon="3.71709">
        <ele>137.13</ele>
        <time>2015-04-05T08:39:20Z</time>
      </trkpt>
      <trkpt lat="50.13772" lon="3.717">
        <ele>137.13</ele>
        <time>2015-04-05T08:39:22Z</time>
      </trkpt>
      <trkpt lat="50.13776" lon="3.71697">
        <ele>137.13</ele>
        <time>2015-04-05T08:39:23Z</time>
      </trkpt>
      <trkpt lat="50.13781" lon="3.71695">
        <ele>137.13</ele>
        <time>2015-04-05T08:39:24Z</time>
      </trkpt>
      <trkpt lat="50.13796" lon="3.71692">
        <ele>137.13</ele>
        <time>2015-04-05T08:39:27Z</time>
      </trkpt>
      <trkpt lat="50.13867" lon="3.71703">
        <ele>137.13</ele>
        <time>2015-04-05T08:39:42Z</time>
      </trkpt>
      <trkpt lat="50.13919" lon="3.7175">
        <ele>137.13</ele>
        <time>2015-04-05T08:39:55Z</time>
      </trkpt>
      <trkpt lat="50.13931" lon="3.71772">
        <ele>137.13</ele>
        <time>2015-04-05T08:39:59Z</time>
      </trkpt>
      <trkpt lat="50.13943" lon="3.71795">
        <ele>132.8</ele>
        <time>2015-04-05T08:40:03Z</time>
      </trkpt>
      <trkpt lat="50.13945" lon="3.71801">
        <ele>138.57</ele>
        <time>2015-04-05T08:40:04Z</time>
      </trkpt>
      <trkpt lat="50.13964" lon="3.71834">
        <ele>138.09</ele>
        <time>2015-04-05T08:40:10Z</time>
      </trkpt>
      <trkpt lat="50.14027" lon="3.71896">
        <ele>137.61</ele>
        <time>2015-04-05T08:40:26Z</time>
      </trkpt>
      <trkpt lat="50.1403" lon="3.71902">
        <ele>137.61</ele>
        <time>2015-04-05T08:40:27Z</time>
      </trkpt>
      <trkpt lat="50.14031" lon="3.71908">
        <ele>137.61</ele>
        <time>2015-04-05T08:40:28Z</time>
      </trkpt>
      <trkpt lat="50.14031" lon="3.71914">
        <ele>137.61</ele>
        <time>2015-04-05T08:40:29Z</time>
      </trkpt>
      <trkpt lat="50.1403" lon="3.71919">
        <ele>137.61</ele>
        <time>2015-04-05T08:40:30Z</time>
      </trkpt>
      <trkpt lat="50.14028" lon="3.71923">
        <ele>137.61</ele>
        <time>2015-04-05T08:40:31Z</time>
      </trkpt>
      <trkpt lat="50.14026" lon="3.71927">
        <ele>137.61</ele>
        <time>2015-04-05T08:40:32Z</time>
      </trkpt>
      <trkpt lat="50.14023" lon="3.71929">
        <ele>137.61</ele>
        <time>2015-04-05T08:40:33Z</time>
      </trkpt>
      <trkpt lat="50.14015" lon="3.71925">
        <ele>137.61</ele>
        <time>2015-04-05T08:40:35Z</time>
      </trkpt>
      <trkpt lat="50.1399" lon="3.71904">
        <ele>137.61</ele>
        <time>2015-04-05T08:40:41Z</time>
      </trkpt>
      <trkpt lat="50.13972" lon="3.71893">
        <ele>137.61</ele>
        <time>2015-04-05T08:40:45Z</time>
      </trkpt>
      <trkpt lat="50.13936" lon="3.71849">
        <ele>136.64</ele>
        <time>2015-04-05T08:40:57Z</time>
      </trkpt>
      <trkpt lat="50.13908" lon="3.71793">
        <ele>136.64</ele>
        <time>2015-04-05T08:41:11Z</time>
      </trkpt>
      <trkpt lat="50.13873" lon="3.7175">
        <ele>136.64</ele>
        <time>2015-04-05T08:41:25Z</time>
      </trkpt>
      <trkpt lat="50.13835" lon="3.71734">
        <ele>136.64</ele>
        <time>2015-04-05T08:41:40Z</time>
      </trkpt>
      <trkpt lat="50.13805" lon="3.71731">
        <ele>136.64</ele>
        <time>2015-04-05T08:41:53Z</time>
      </trkpt>
      <trkpt lat="50.13778" lon="3.71743">
        <ele>136.64</ele>
        <time>2015-04-05T08:42:06Z</time>
      </trkpt>
      <trkpt lat="50.1376" lon="3.71778">
        <ele>136.64</ele>
        <time>2015-04-05T08:42:19Z</time>
      </trkpt>
      <trkpt lat="50.13739" lon="3.71825">
        <ele>137.13</ele>
        <time>2015-04-05T08:42:33Z</time>
      </trkpt>
      <trkpt lat="50.13717" lon="3.71862">
        <ele>137.13</ele>
        <time>2015-04-05T08:42:47Z</time>
      </trkpt>
      <trkpt lat="50.13696" lon="3.71899">
        <ele>137.13</ele>
        <time>2015-04-05T08:43:02Z</time>
      </trkpt>
      <trkpt lat="50.13675" lon="3.71935">
        <ele>137.13</ele>
        <time>2015-04-05T08:43:15Z</time>
      </trkpt>
      <trkpt lat="50.13653" lon="3.71979">
        <ele>137.13</ele>
        <time>2015-04-05T08:43:31Z</time>
      </trkpt>
      <trkpt lat="50.1365" lon="3.71996">
        <ele>137.13</ele>
        <time>2015-04-05T08:43:37Z</time>
      </trkpt>
      <trkpt lat="50.13665" lon="3.72015">
        <ele>135.68</ele>
        <time>2015-04-05T08:43:46Z</time>
      </trkpt>
      <trkpt lat="50.13672" lon="3.72029">
        <ele>135.2</ele>
        <time>2015-04-05T08:43:57Z</time>
      </trkpt>
      <trkpt lat="50.13688" lon="3.72057">
        <ele>135.68</ele>
        <time>2015-04-05T08:44:17Z</time>
      </trkpt>
      <trkpt lat="50.13689" lon="3.72059">
        <ele>135.68</ele>
        <time>2015-04-05T08:44:19Z</time>
      </trkpt>
      <trkpt lat="50.13696" lon="3.72077">
        <ele>135.68</ele>
        <time>2015-04-05T08:44:30Z</time>
      </trkpt>
      <trkpt lat="50.13696" lon="3.721">
        <ele>135.68</ele>
        <time>2015-04-05T08:44:46Z</time>
      </trkpt>
      <trkpt lat="50.13699" lon="3.72104">
        <ele>135.68</ele>
        <time>2015-04-05T08:44:56Z</time>
      </trkpt>
      <trkpt lat="50.13711" lon="3.72124">
        <ele>135.68</ele>
        <time>2015-04-05T08:45:09Z</time>
      </trkpt>
      <trkpt lat="50.13736" lon="3.72165">
        <ele>135.68</ele>
        <time>2015-04-05T08:45:23Z</time>
      </trkpt>
      <trkpt lat="50.13766" lon="3.72217">
        <ele>135.68</ele>
        <time>2015-04-05T08:45:37Z</time>
      </trkpt>
      <trkpt lat="50.13795" lon="3.72259">
        <ele>135.2</ele>
        <time>2015-04-05T08:45:50Z</time>
      </trkpt>
      <trkpt lat="50.13829" lon="3.72278">
        <ele>135.2</ele>
        <time>2015-04-05T08:46:02Z</time>
      </trkpt>
      <trkpt lat="50.13831" lon="3.72282">
        <ele>135.2</ele>
        <time>2015-04-05T08:46:03Z</time>
      </trkpt>
      <trkpt lat="50.13832" lon="3.72286">
        <ele>135.2</ele>
        <time>2015-04-05T08:46:04Z</time>
      </trkpt>
      <trkpt lat="50.13832" lon="3.72291">
        <ele>135.2</ele>
        <time>2015-04-05T08:46:05Z</time>
      </trkpt>
      <trkpt lat="50.13831" lon="3.72295">
        <ele>134.72</ele>
        <time>2015-04-05T08:46:06Z</time>
      </trkpt>
      <trkpt lat="50.1383" lon="3.72299">
        <ele>134.72</ele>
        <time>2015-04-05T08:46:07Z</time>
      </trkpt>
      <trkpt lat="50.13828" lon="3.72303">
        <ele>134.72</ele>
        <time>2015-04-05T08:46:08Z</time>
      </trkpt>
      <trkpt lat="50.13796" lon="3.72361">
        <ele>134.72</ele>
        <time>2015-04-05T08:46:22Z</time>
      </trkpt>
      <trkpt lat="50.1376" lon="3.72412">
        <ele>134.72</ele>
        <time>2015-04-05T08:46:36Z</time>
      </trkpt>
      <trkpt lat="50.13716" lon="3.72458">
        <ele>134.72</ele>
        <time>2015-04-05T08:46:50Z</time>
      </trkpt>
      <trkpt lat="50.1369" lon="3.72516">
        <ele>134.72</ele>
        <time>2015-04-05T08:47:03Z</time>
      </trkpt>
      <trkpt lat="50.13692" lon="3.72551">
        <ele>136.16</ele>
        <time>2015-04-05T08:47:09Z</time>
      </trkpt>
      <trkpt lat="50.13693" lon="3.72557">
        <ele>136.16</ele>
        <time>2015-04-05T08:47:10Z</time>
      </trkpt>
      <trkpt lat="50.13693" lon="3.72578">
        <ele>136.64</ele>
        <time>2015-04-05T08:47:13Z</time>
      </trkpt>
      <trkpt lat="50.13693" lon="3.72585">
        <ele>137.13</ele>
        <time>2015-04-05T08:47:14Z</time>
      </trkpt>
      <trkpt lat="50.13695" lon="3.72693">
        <ele>136.64</ele>
        <time>2015-04-05T08:47:30Z</time>
      </trkpt>
      <trkpt lat="50.13693" lon="3.72698">
        <ele>136.64</ele>
        <time>2015-04-05T08:47:31Z</time>
      </trkpt>
      <trkpt lat="50.1369" lon="3.72702">
        <ele>136.64</ele>
        <time>2015-04-05T08:47:32Z</time>
      </trkpt>
      <trkpt lat="50.13687" lon="3.72705">
        <ele>136.64</ele>
        <time>2015-04-05T08:47:33Z</time>
      </trkpt>
      <trkpt lat="50.13683" lon="3.72705">
        <ele>136.64</ele>
        <time>2015-04-05T08:47:34Z</time>
      </trkpt>
      <trkpt lat="50.13678" lon="3.72705">
        <ele>137.13</ele>
        <time>2015-04-05T08:47:35Z</time>
      </trkpt>
      <trkpt lat="50.1367" lon="3.72705">
        <ele>137.13</ele>
        <time>2015-04-05T08:47:37Z</time>
      </trkpt>
      <trkpt lat="50.13665" lon="3.72705">
        <ele>136.64</ele>
        <time>2015-04-05T08:47:38Z</time>
      </trkpt>
      <trkpt lat="50.13661" lon="3.72706">
        <ele>136.64</ele>
        <time>2015-04-05T08:47:39Z</time>
      </trkpt>
      <trkpt lat="50.13657" lon="3.72707">
        <ele>136.64</ele>
        <time>2015-04-05T08:47:40Z</time>
      </trkpt>
      <trkpt lat="50.13652" lon="3.72708">
        <ele>136.64</ele>
        <time>2015-04-05T08:47:41Z</time>
      </trkpt>
      <trkpt lat="50.13648" lon="3.7271">
        <ele>135.68</ele>
        <time>2015-04-05T08:47:42Z</time>
      </trkpt>
      <trkpt lat="50.13644" lon="3.72711">
        <ele>135.68</ele>
        <time>2015-04-05T08:47:43Z</time>
      </trkpt>
      <trkpt lat="50.13627" lon="3.72717">
        <ele>135.68</ele>
        <time>2015-04-05T08:47:47Z</time>
      </trkpt>
      <trkpt lat="50.13623" lon="3.72719">
        <ele>135.68</ele>
        <time>2015-04-05T08:47:48Z</time>
      </trkpt>
      <trkpt lat="50.13614" lon="3.72725">
        <ele>135.68</ele>
        <time>2015-04-05T08:47:50Z</time>
      </trkpt>
      <trkpt lat="50.13611" lon="3.72729">
        <ele>135.68</ele>
        <time>2015-04-05T08:47:51Z</time>
      </trkpt>
      <trkpt lat="50.13607" lon="3.72734">
        <ele>135.68</ele>
        <time>2015-04-05T08:47:52Z</time>
      </trkpt>
      <trkpt lat="50.13605" lon="3.7274">
        <ele>135.68</ele>
        <time>2015-04-05T08:47:53Z</time>
      </trkpt>
      <trkpt lat="50.13602" lon="3.72745">
        <ele>135.68</ele>
        <time>2015-04-05T08:47:54Z</time>
      </trkpt>
      <trkpt lat="50.13601" lon="3.72752">
        <ele>135.68</ele>
        <time>2015-04-05T08:47:55Z</time>
      </trkpt>
      <trkpt lat="50.13594" lon="3.72769">
        <ele>135.68</ele>
        <time>2015-04-05T08:47:58Z</time>
      </trkpt>
      <trkpt lat="50.1359" lon="3.72772">
        <ele>135.68</ele>
        <time>2015-04-05T08:47:59Z</time>
      </trkpt>
      <trkpt lat="50.13586" lon="3.72772">
        <ele>135.68</ele>
        <time>2015-04-05T08:48:00Z</time>
      </trkpt>
      <trkpt lat="50.13583" lon="3.72771">
        <ele>135.68</ele>
        <time>2015-04-05T08:48:01Z</time>
      </trkpt>
      <trkpt lat="50.13579" lon="3.72768">
        <ele>135.68</ele>
        <time>2015-04-05T08:48:02Z</time>
      </trkpt>
      <trkpt lat="50.13517" lon="3.72738">
        <ele>136.64</ele>
        <time>2015-04-05T08:48:19Z</time>
      </trkpt>
      <trkpt lat="50.13512" lon="3.72737">
        <ele>136.64</ele>
        <time>2015-04-05T08:48:20Z</time>
      </trkpt>
      <trkpt lat="50.13447" lon="3.72715">
        <ele>137.13</ele>
        <time>2015-04-05T08:48:36Z</time>
      </trkpt>
      <trkpt lat="50.1336" lon="3.72695">
        <ele>138.57</ele>
        <time>2015-04-05T08:48:55Z</time>
      </trkpt>
      <trkpt lat="50.13273" lon="3.7266">
        <ele>138.57</ele>
        <time>2015-04-05T08:49:12Z</time>
      </trkpt>
      <trkpt lat="50.13183" lon="3.72609">
        <ele>137.61</ele>
        <time>2015-04-05T08:49:28Z</time>
      </trkpt>
      <trkpt lat="50.13177" lon="3.72606">
        <ele>137.61</ele>
        <time>2015-04-05T08:49:29Z</time>
      </trkpt>
      <trkpt lat="50.13098" lon="3.72571">
        <ele>137.61</ele>
        <time>2015-04-05T08:49:43Z</time>
      </trkpt>
      <trkpt lat="50.13093" lon="3.72566">
        <ele>137.61</ele>
        <time>2015-04-05T08:49:44Z</time>
      </trkpt>
      <trkpt lat="50.1308" lon="3.7255">
        <ele>137.61</ele>
        <time>2015-04-05T08:49:47Z</time>
      </trkpt>
      <trkpt lat="50.13033" lon="3.72467">
        <ele>137.61</ele>
        <time>2015-04-05T08:50:00Z</time>
      </trkpt>
      <trkpt lat="50.13029" lon="3.72464">
        <ele>137.61</ele>
        <time>2015-04-05T08:50:01Z</time>
      </trkpt>
      <trkpt lat="50.13025" lon="3.72465">
        <ele>138.57</ele>
        <time>2015-04-05T08:50:02Z</time>
      </trkpt>
      <trkpt lat="50.13022" lon="3.72467">
        <ele>138.57</ele>
        <time>2015-04-05T08:50:03Z</time>
      </trkpt>
      <trkpt lat="50.13019" lon="3.72471">
        <ele>138.57</ele>
        <time>2015-04-05T08:50:04Z</time>
      </trkpt>
      <trkpt lat="50.13016" lon="3.72475">
        <ele>138.57</ele>
        <time>2015-04-05T08:50:05Z</time>
      </trkpt>
      <trkpt lat="50.13013" lon="3.7248">
        <ele>138.57</ele>
        <time>2015-04-05T08:50:06Z</time>
      </trkpt>
      <trkpt lat="50.13001" lon="3.72496">
        <ele>140.01</ele>
        <time>2015-04-05T08:50:10Z</time>
      </trkpt>
      <trkpt lat="50.12963" lon="3.7255">
        <ele>140.49</ele>
        <time>2015-04-05T08:50:24Z</time>
      </trkpt>
      <trkpt lat="50.12925" lon="3.72598">
        <ele>140.97</ele>
        <time>2015-04-05T08:50:38Z</time>
      </trkpt>
      <trkpt lat="50.12889" lon="3.72648">
        <ele>141.93</ele>
        <time>2015-04-05T08:50:52Z</time>
      </trkpt>
      <trkpt lat="50.12852" lon="3.72703">
        <ele>143.37</ele>
        <time>2015-04-05T08:51:07Z</time>
      </trkpt>
      <trkpt lat="50.12853" lon="3.72707">
        <ele>143.37</ele>
        <time>2015-04-05T08:51:08Z</time>
      </trkpt>
      <trkpt lat="50.12854" lon="3.72711">
        <ele>143.85</ele>
        <time>2015-04-05T08:51:09Z</time>
      </trkpt>
      <trkpt lat="50.12856" lon="3.72714">
        <ele>143.85</ele>
        <time>2015-04-05T08:51:10Z</time>
      </trkpt>
      <trkpt lat="50.12858" lon="3.72717">
        <ele>143.85</ele>
        <time>2015-04-05T08:51:11Z</time>
      </trkpt>
      <trkpt lat="50.12861" lon="3.7272">
        <ele>143.85</ele>
        <time>2015-04-05T08:51:12Z</time>
      </trkpt>
      <trkpt lat="50.12877" lon="3.72745">
        <ele>143.85</ele>
        <time>2015-04-05T08:51:19Z</time>
      </trkpt>
      <trkpt lat="50.12877" lon="3.7275">
        <ele>143.85</ele>
        <time>2015-04-05T08:51:20Z</time>
      </trkpt>
      <trkpt lat="50.12877" lon="3.72754">
        <ele>143.85</ele>
        <time>2015-04-05T08:51:21Z</time>
      </trkpt>
      <trkpt lat="50.12875" lon="3.72758">
        <ele>143.85</ele>
        <time>2015-04-05T08:51:22Z</time>
      </trkpt>
      <trkpt lat="50.12873" lon="3.72762">
        <ele>143.85</ele>
        <time>2015-04-05T08:51:23Z</time>
      </trkpt>
      <trkpt lat="50.12871" lon="3.72765">
        <ele>143.85</ele>
        <time>2015-04-05T08:51:24Z</time>
      </trkpt>
      <trkpt lat="50.12869" lon="3.72769">
        <ele>144.34</ele>
        <time>2015-04-05T08:51:25Z</time>
      </trkpt>
      <trkpt lat="50.12836" lon="3.72823">
        <ele>144.82</ele>
        <time>2015-04-05T08:51:41Z</time>
      </trkpt>
      <trkpt lat="50.12818" lon="3.72865">
        <ele>146.26</ele>
        <time>2015-04-05T08:51:54Z</time>
      </trkpt>
      <trkpt lat="50.12822" lon="3.72923">
        <ele>147.22</ele>
        <time>2015-04-05T08:52:07Z</time>
      </trkpt>
      <trkpt lat="50.12828" lon="3.73">
        <ele>148.66</ele>
        <time>2015-04-05T08:52:25Z</time>
      </trkpt>
      <trkpt lat="50.12829" lon="3.73072">
        <ele>150.1</ele>
        <time>2015-04-05T08:52:41Z</time>
      </trkpt>
      <trkpt lat="50.12812" lon="3.73121">
        <ele>151.54</ele>
        <time>2015-04-05T08:52:54Z</time>
      </trkpt>
      <trkpt lat="50.12815" lon="3.73197">
        <ele>152.51</ele>
        <time>2015-04-05T08:53:11Z</time>
      </trkpt>
      <trkpt lat="50.12819" lon="3.73278">
        <ele>153.95</ele>
        <time>2015-04-05T08:53:31Z</time>
      </trkpt>
      <trkpt lat="50.1282" lon="3.73302">
        <ele>154.43</ele>
        <time>2015-04-05T08:53:38Z</time>
      </trkpt>
      <trkpt lat="50.12821" lon="3.73304">
        <ele>154.91</ele>
        <time>2015-04-05T08:53:39Z</time>
      </trkpt>
      <trkpt lat="50.1282" lon="3.73307">
        <ele>154.91</ele>
        <time>2015-04-05T08:53:40Z</time>
      </trkpt>
      <trkpt lat="50.1281" lon="3.73352">
        <ele>155.87</ele>
        <time>2015-04-05T08:53:54Z</time>
      </trkpt>
      <trkpt lat="50.12792" lon="3.73423">
        <ele>157.31</ele>
        <time>2015-04-05T08:54:13Z</time>
      </trkpt>
      <trkpt lat="50.12768" lon="3.73491">
        <ele>157.79</ele>
        <time>2015-04-05T08:54:30Z</time>
      </trkpt>
      <trkpt lat="50.12739" lon="3.73517">
        <ele>158.75</ele>
        <time>2015-04-05T08:54:42Z</time>
      </trkpt>
      <trkpt lat="50.12728" lon="3.73574">
        <ele>158.75</ele>
        <time>2015-04-05T08:54:54Z</time>
      </trkpt>
      <trkpt lat="50.12712" lon="3.73644">
        <ele>159.72</ele>
        <time>2015-04-05T08:55:11Z</time>
      </trkpt>
      <trkpt lat="50.12697" lon="3.737">
        <ele>159.24</ele>
        <time>2015-04-05T08:55:25Z</time>
      </trkpt>
      <trkpt lat="50.12668" lon="3.73775">
        <ele>157.31</ele>
        <time>2015-04-05T08:55:41Z</time>
      </trkpt>
      <trkpt lat="50.1264" lon="3.73832">
        <ele>156.83</ele>
        <time>2015-04-05T08:55:55Z</time>
      </trkpt>
      <trkpt lat="50.12636" lon="3.73836">
        <ele>156.83</ele>
        <time>2015-04-05T08:55:58Z</time>
      </trkpt>
      <trkpt lat="50.12632" lon="3.73834">
        <ele>158.75</ele>
        <time>2015-04-05T08:56:03Z</time>
      </trkpt>
      <trkpt lat="50.1263" lon="3.7383">
        <ele>158.75</ele>
        <time>2015-04-05T08:56:04Z</time>
      </trkpt>
      <trkpt lat="50.1262" lon="3.73774">
        <ele>159.72</ele>
        <time>2015-04-05T08:56:12Z</time>
      </trkpt>
      <trkpt lat="50.12618" lon="3.73768">
        <ele>159.72</ele>
        <time>2015-04-05T08:56:13Z</time>
      </trkpt>
      <trkpt lat="50.12617" lon="3.73763">
        <ele>159.72</ele>
        <time>2015-04-05T08:56:14Z</time>
      </trkpt>
      <trkpt lat="50.12616" lon="3.73757">
        <ele>160.2</ele>
        <time>2015-04-05T08:56:15Z</time>
      </trkpt>
      <trkpt lat="50.12615" lon="3.73752">
        <ele>160.2</ele>
        <time>2015-04-05T08:56:16Z</time>
      </trkpt>
      <trkpt lat="50.12589" lon="3.73695">
        <ele>161.64</ele>
        <time>2015-04-05T08:56:29Z</time>
      </trkpt>
      <trkpt lat="50.12586" lon="3.73695">
        <ele>161.64</ele>
        <time>2015-04-05T08:56:30Z</time>
      </trkpt>
      <trkpt lat="50.12582" lon="3.73697">
        <ele>161.64</ele>
        <time>2015-04-05T08:56:31Z</time>
      </trkpt>
      <trkpt lat="50.12526" lon="3.73723">
        <ele>163.08</ele>
        <time>2015-04-05T08:56:48Z</time>
      </trkpt>
      <trkpt lat="50.1252" lon="3.73738">
        <ele>163.56</ele>
        <time>2015-04-05T08:56:51Z</time>
      </trkpt>
      <trkpt lat="50.12516" lon="3.73751">
        <ele>163.56</ele>
        <time>2015-04-05T08:56:53Z</time>
      </trkpt>
      <trkpt lat="50.12512" lon="3.73763">
        <ele>163.56</ele>
        <time>2015-04-05T08:56:55Z</time>
      </trkpt>
      <trkpt lat="50.1251" lon="3.73768">
        <ele>163.56</ele>
        <time>2015-04-05T08:56:56Z</time>
      </trkpt>
      <trkpt lat="50.12486" lon="3.7382">
        <ele>164.52</ele>
        <time>2015-04-05T08:57:08Z</time>
      </trkpt>
      <trkpt lat="50.12452" lon="3.73864">
        <ele>165</ele>
        <time>2015-04-05T08:57:21Z</time>
      </trkpt>
      <trkpt lat="50.1242" lon="3.73912">
        <ele>165.48</ele>
        <time>2015-04-05T08:57:34Z</time>
      </trkpt>
      <trkpt lat="50.1241" lon="3.73943">
        <ele>164.52</ele>
        <time>2015-04-05T08:57:39Z</time>
      </trkpt>
      <trkpt lat="50.12402" lon="3.73975">
        <ele>164.04</ele>
        <time>2015-04-05T08:57:44Z</time>
      </trkpt>
      <trkpt lat="50.124" lon="3.73981">
        <ele>163.56</ele>
        <time>2015-04-05T08:57:45Z</time>
      </trkpt>
      <trkpt lat="50.12395" lon="3.74006">
        <ele>163.08</ele>
        <time>2015-04-05T08:57:49Z</time>
      </trkpt>
      <trkpt lat="50.12393" lon="3.74012">
        <ele>163.08</ele>
        <time>2015-04-05T08:57:50Z</time>
      </trkpt>
      <trkpt lat="50.1238" lon="3.74116">
        <ele>161.64</ele>
        <time>2015-04-05T08:58:06Z</time>
      </trkpt>
      <trkpt lat="50.12374" lon="3.74191">
        <ele>161.16</ele>
        <time>2015-04-05T08:58:20Z</time>
      </trkpt>
      <trkpt lat="50.12369" lon="3.74255">
        <ele>161.16</ele>
        <time>2015-04-05T08:58:32Z</time>
      </trkpt>
      <trkpt lat="50.12353" lon="3.74344">
        <ele>158.27</ele>
        <time>2015-04-05T08:58:45Z</time>
      </trkpt>
      <trkpt lat="50.1235" lon="3.74359">
        <ele>157.79</ele>
        <time>2015-04-05T08:58:47Z</time>
      </trkpt>
      <trkpt lat="50.12317" lon="3.74457">
        <ele>154.43</ele>
        <time>2015-04-05T08:59:00Z</time>
      </trkpt>
      <trkpt lat="50.12312" lon="3.74476">
        <ele>153.95</ele>
        <time>2015-04-05T08:59:02Z</time>
      </trkpt>
      <trkpt lat="50.1231" lon="3.74486">
        <ele>153.95</ele>
        <time>2015-04-05T08:59:03Z</time>
      </trkpt>
      <trkpt lat="50.1231" lon="3.74497">
        <ele>153.95</ele>
        <time>2015-04-05T08:59:04Z</time>
      </trkpt>
      <trkpt lat="50.12311" lon="3.74506">
        <ele>153.47</ele>
        <time>2015-04-05T08:59:05Z</time>
      </trkpt>
      <trkpt lat="50.12312" lon="3.74515">
        <ele>152.99</ele>
        <time>2015-04-05T08:59:06Z</time>
      </trkpt>
      <trkpt lat="50.12312" lon="3.7461">
        <ele>153.47</ele>
        <time>2015-04-05T08:59:17Z</time>
      </trkpt>
      <trkpt lat="50.1231" lon="3.74617">
        <ele>153.47</ele>
        <time>2015-04-05T08:59:18Z</time>
      </trkpt>
      <trkpt lat="50.12308" lon="3.74624">
        <ele>153.47</ele>
        <time>2015-04-05T08:59:19Z</time>
      </trkpt>
      <trkpt lat="50.12297" lon="3.74662">
        <ele>153.95</ele>
        <time>2015-04-05T08:59:25Z</time>
      </trkpt>
      <trkpt lat="50.12295" lon="3.74675">
        <ele>154.43</ele>
        <time>2015-04-05T08:59:27Z</time>
      </trkpt>
      <trkpt lat="50.1229" lon="3.74708">
        <ele>152.51</ele>
        <time>2015-04-05T08:59:31Z</time>
      </trkpt>
      <trkpt lat="50.12286" lon="3.74724">
        <ele>152.51</ele>
        <time>2015-04-05T08:59:33Z</time>
      </trkpt>
      <trkpt lat="50.12278" lon="3.74749">
        <ele>152.03</ele>
        <time>2015-04-05T08:59:36Z</time>
      </trkpt>
      <trkpt lat="50.12276" lon="3.74757">
        <ele>152.03</ele>
        <time>2015-04-05T08:59:37Z</time>
      </trkpt>
      <trkpt lat="50.12251" lon="3.74834">
        <ele>150.58</ele>
        <time>2015-04-05T08:59:48Z</time>
      </trkpt>
      <trkpt lat="50.12245" lon="3.74853">
        <ele>150.1</ele>
        <time>2015-04-05T08:59:51Z</time>
      </trkpt>
      <trkpt lat="50.12245" lon="3.7486">
        <ele>150.1</ele>
        <time>2015-04-05T08:59:52Z</time>
      </trkpt>
      <trkpt lat="50.12245" lon="3.74867">
        <ele>150.1</ele>
        <time>2015-04-05T08:59:53Z</time>
      </trkpt>
      <trkpt lat="50.12246" lon="3.74874">
        <ele>150.1</ele>
        <time>2015-04-05T08:59:54Z</time>
      </trkpt>
      <trkpt lat="50.12248" lon="3.7488">
        <ele>150.1</ele>
        <time>2015-04-05T08:59:55Z</time>
      </trkpt>
      <trkpt lat="50.12249" lon="3.74886">
        <ele>150.1</ele>
        <time>2015-04-05T08:59:56Z</time>
      </trkpt>
      <trkpt lat="50.12251" lon="3.74891">
        <ele>150.1</ele>
        <time>2015-04-05T08:59:57Z</time>
      </trkpt>
      <trkpt lat="50.12255" lon="3.74894">
        <ele>150.1</ele>
        <time>2015-04-05T08:59:58Z</time>
      </trkpt>
      <trkpt lat="50.1226" lon="3.74895">
        <ele>149.14</ele>
        <time>2015-04-05T08:59:59Z</time>
      </trkpt>
      <trkpt lat="50.12265" lon="3.74896">
        <ele>148.66</ele>
        <time>2015-04-05T09:00:00Z</time>
      </trkpt>
      <trkpt lat="50.1227" lon="3.74897">
        <ele>148.66</ele>
        <time>2015-04-05T09:00:01Z</time>
      </trkpt>
      <trkpt lat="50.12336" lon="3.74924">
        <ele>146.26</ele>
        <time>2015-04-05T09:00:15Z</time>
      </trkpt>
      <trkpt lat="50.12354" lon="3.7493">
        <ele>146.26</ele>
        <time>2015-04-05T09:00:19Z</time>
      </trkpt>
      <trkpt lat="50.12359" lon="3.74931">
        <ele>145.78</ele>
        <time>2015-04-05T09:00:20Z</time>
      </trkpt>
      <trkpt lat="50.12363" lon="3.7493">
        <ele>146.26</ele>
        <time>2015-04-05T09:00:21Z</time>
      </trkpt>
      <trkpt lat="50.12368" lon="3.74928">
        <ele>146.26</ele>
        <time>2015-04-05T09:00:22Z</time>
      </trkpt>
      <trkpt lat="50.12373" lon="3.74926">
        <ele>145.78</ele>
        <time>2015-04-05T09:00:23Z</time>
      </trkpt>
      <trkpt lat="50.12394" lon="3.74912">
        <ele>144.34</ele>
        <time>2015-04-05T09:00:28Z</time>
      </trkpt>
      <trkpt lat="50.12398" lon="3.74911">
        <ele>144.34</ele>
        <time>2015-04-05T09:00:29Z</time>
      </trkpt>
      <trkpt lat="50.12403" lon="3.7491">
        <ele>144.34</ele>
        <time>2015-04-05T09:00:30Z</time>
      </trkpt>
      <trkpt lat="50.12407" lon="3.74909">
        <ele>144.34</ele>
        <time>2015-04-05T09:00:31Z</time>
      </trkpt>
      <trkpt lat="50.12412" lon="3.74909">
        <ele>143.85</ele>
        <time>2015-04-05T09:00:32Z</time>
      </trkpt>
      <trkpt lat="50.12417" lon="3.7491">
        <ele>143.85</ele>
        <time>2015-04-05T09:00:33Z</time>
      </trkpt>
      <trkpt lat="50.12479" lon="3.74915">
        <ele>142.89</ele>
        <time>2015-04-05T09:00:46Z</time>
      </trkpt>
      <trkpt lat="50.125" lon="3.74914">
        <ele>142.89</ele>
        <time>2015-04-05T09:00:50Z</time>
      </trkpt>
      <trkpt lat="50.12516" lon="3.7491">
        <ele>142.41</ele>
        <time>2015-04-05T09:00:53Z</time>
      </trkpt>
      <trkpt lat="50.12521" lon="3.74908">
        <ele>142.41</ele>
        <time>2015-04-05T09:00:54Z</time>
      </trkpt>
      <trkpt lat="50.12533" lon="3.74906">
        <ele>142.41</ele>
        <time>2015-04-05T09:00:56Z</time>
      </trkpt>
      <trkpt lat="50.12538" lon="3.74903">
        <ele>142.41</ele>
        <time>2015-04-05T09:00:57Z</time>
      </trkpt>
      <trkpt lat="50.12548" lon="3.74899">
        <ele>141.93</ele>
        <time>2015-04-05T09:00:59Z</time>
      </trkpt>
      <trkpt lat="50.12563" lon="3.74895">
        <ele>141.45</ele>
        <time>2015-04-05T09:01:02Z</time>
      </trkpt>
      <trkpt lat="50.12644" lon="3.74898">
        <ele>140.01</ele>
        <time>2015-04-05T09:01:18Z</time>
      </trkpt>
      <trkpt lat="50.12649" lon="3.749">
        <ele>140.01</ele>
        <time>2015-04-05T09:01:19Z</time>
      </trkpt>
      <trkpt lat="50.12655" lon="3.74903">
        <ele>140.01</ele>
        <time>2015-04-05T09:01:20Z</time>
      </trkpt>
      <trkpt lat="50.1266" lon="3.74906">
        <ele>139.53</ele>
        <time>2015-04-05T09:01:21Z</time>
      </trkpt>
      <trkpt lat="50.12666" lon="3.74909">
        <ele>139.53</ele>
        <time>2015-04-05T09:01:22Z</time>
      </trkpt>
      <trkpt lat="50.12671" lon="3.74912">
        <ele>139.53</ele>
        <time>2015-04-05T09:01:23Z</time>
      </trkpt>
      <trkpt lat="50.12677" lon="3.74914">
        <ele>139.53</ele>
        <time>2015-04-05T09:01:24Z</time>
      </trkpt>
      <trkpt lat="50.12682" lon="3.74915">
        <ele>139.53</ele>
        <time>2015-04-05T09:01:25Z</time>
      </trkpt>
      <trkpt lat="50.12739" lon="3.74934">
        <ele>138.57</ele>
        <time>2015-04-05T09:01:37Z</time>
      </trkpt>
      <trkpt lat="50.12801" lon="3.74979">
        <ele>138.09</ele>
        <time>2015-04-05T09:01:51Z</time>
      </trkpt>
      <trkpt lat="50.12822" lon="3.75015">
        <ele>138.09</ele>
        <time>2015-04-05T09:01:59Z</time>
      </trkpt>
      <trkpt lat="50.12821" lon="3.75019">
        <ele>138.09</ele>
        <time>2015-04-05T09:02:00Z</time>
      </trkpt>
      <trkpt lat="50.12812" lon="3.75077">
        <ele>138.09</ele>
        <time>2015-04-05T09:02:10Z</time>
      </trkpt>
      <trkpt lat="50.12811" lon="3.75084">
        <ele>138.09</ele>
        <time>2015-04-05T09:02:11Z</time>
      </trkpt>
      <trkpt lat="50.12811" lon="3.7509">
        <ele>139.53</ele>
        <time>2015-04-05T09:02:12Z</time>
      </trkpt>
      <trkpt lat="50.12811" lon="3.75097">
        <ele>139.53</ele>
        <time>2015-04-05T09:02:13Z</time>
      </trkpt>
      <trkpt lat="50.12812" lon="3.75129">
        <ele>139.53</ele>
        <time>2015-04-05T09:02:18Z</time>
      </trkpt>
      <trkpt lat="50.12814" lon="3.75135">
        <ele>139.53</ele>
        <time>2015-04-05T09:02:19Z</time>
      </trkpt>
      <trkpt lat="50.12849" lon="3.75238">
        <ele>138.09</ele>
        <time>2015-04-05T09:02:36Z</time>
      </trkpt>
      <trkpt lat="50.12882" lon="3.75346">
        <ele>139.05</ele>
        <time>2015-04-05T09:02:52Z</time>
      </trkpt>
      <trkpt lat="50.12888" lon="3.75372">
        <ele>138.09</ele>
        <time>2015-04-05T09:02:56Z</time>
      </trkpt>
      <trkpt lat="50.12902" lon="3.75489">
        <ele>137.61</ele>
        <time>2015-04-05T09:03:13Z</time>
      </trkpt>
      <trkpt lat="50.12906" lon="3.75523">
        <ele>137.13</ele>
        <time>2015-04-05T09:03:18Z</time>
      </trkpt>
      <trkpt lat="50.12922" lon="3.7562">
        <ele>136.64</ele>
        <time>2015-04-05T09:03:32Z</time>
      </trkpt>
      <trkpt lat="50.12924" lon="3.75642">
        <ele>136.64</ele>
        <time>2015-04-05T09:03:35Z</time>
      </trkpt>
      <trkpt lat="50.12925" lon="3.75656">
        <ele>136.64</ele>
        <time>2015-04-05T09:03:37Z</time>
      </trkpt>
      <trkpt lat="50.1293" lon="3.75718">
        <ele>138.09</ele>
        <time>2015-04-05T09:03:46Z</time>
      </trkpt>
      <trkpt lat="50.12934" lon="3.75831">
        <ele>138.57</ele>
        <time>2015-04-05T09:04:03Z</time>
      </trkpt>
      <trkpt lat="50.12927" lon="3.75891">
        <ele>138.57</ele>
        <time>2015-04-05T09:04:12Z</time>
      </trkpt>
      <trkpt lat="50.1291" lon="3.75992">
        <ele>137.13</ele>
        <time>2015-04-05T09:04:27Z</time>
      </trkpt>
      <trkpt lat="50.12911" lon="3.75997">
        <ele>137.13</ele>
        <time>2015-04-05T09:04:28Z</time>
      </trkpt>
      <trkpt lat="50.12913" lon="3.76001">
        <ele>137.13</ele>
        <time>2015-04-05T09:04:29Z</time>
      </trkpt>
      <trkpt lat="50.12915" lon="3.76004">
        <ele>137.13</ele>
        <time>2015-04-05T09:04:30Z</time>
      </trkpt>
      <trkpt lat="50.12919" lon="3.76006">
        <ele>137.13</ele>
        <time>2015-04-05T09:04:31Z</time>
      </trkpt>
      <trkpt lat="50.12923" lon="3.76008">
        <ele>138.09</ele>
        <time>2015-04-05T09:04:32Z</time>
      </trkpt>
      <trkpt lat="50.12927" lon="3.7601">
        <ele>138.09</ele>
        <time>2015-04-05T09:04:33Z</time>
      </trkpt>
      <trkpt lat="50.12931" lon="3.7601">
        <ele>138.09</ele>
        <time>2015-04-05T09:04:34Z</time>
      </trkpt>
      <trkpt lat="50.12935" lon="3.76011">
        <ele>138.09</ele>
        <time>2015-04-05T09:04:35Z</time>
      </trkpt>
      <trkpt lat="50.12979" lon="3.76008">
        <ele>137.61</ele>
        <time>2015-04-05T09:04:46Z</time>
      </trkpt>
      <trkpt lat="50.13006" lon="3.76006">
        <ele>137.61</ele>
        <time>2015-04-05T09:04:52Z</time>
      </trkpt>
      <trkpt lat="50.13032" lon="3.76004">
        <ele>137.61</ele>
        <time>2015-04-05T09:04:58Z</time>
      </trkpt>
      <trkpt lat="50.13037" lon="3.76004">
        <ele>137.61</ele>
        <time>2015-04-05T09:04:59Z</time>
      </trkpt>
      <trkpt lat="50.13105" lon="3.75993">
        <ele>137.61</ele>
        <time>2015-04-05T09:05:15Z</time>
      </trkpt>
      <trkpt lat="50.13113" lon="3.75989">
        <ele>137.61</ele>
        <time>2015-04-05T09:05:17Z</time>
      </trkpt>
      <trkpt lat="50.13132" lon="3.75973">
        <ele>137.61</ele>
        <time>2015-04-05T09:05:22Z</time>
      </trkpt>
      <trkpt lat="50.13136" lon="3.75969">
        <ele>137.61</ele>
        <time>2015-04-05T09:05:23Z</time>
      </trkpt>
      <trkpt lat="50.13198" lon="3.75925">
        <ele>136.64</ele>
        <time>2015-04-05T09:05:35Z</time>
      </trkpt>
      <trkpt lat="50.1322" lon="3.75912">
        <ele>136.64</ele>
        <time>2015-04-05T09:05:39Z</time>
      </trkpt>
      <trkpt lat="50.13225" lon="3.75908">
        <ele>136.64</ele>
        <time>2015-04-05T09:05:40Z</time>
      </trkpt>
      <trkpt lat="50.13238" lon="3.75899">
        <ele>138.09</ele>
        <time>2015-04-05T09:05:43Z</time>
      </trkpt>
      <trkpt lat="50.13269" lon="3.75885">
        <ele>138.09</ele>
        <time>2015-04-05T09:05:52Z</time>
      </trkpt>
      <trkpt lat="50.13277" lon="3.7589">
        <ele>138.09</ele>
        <time>2015-04-05T09:06:02Z</time>
      </trkpt>
      <trkpt lat="50.13287" lon="3.75887">
        <ele>140.49</ele>
        <time>2015-04-05T09:06:17Z</time>
      </trkpt>
      <trkpt lat="50.13291" lon="3.75888">
        <ele>140.97</ele>
        <time>2015-04-05T09:06:23Z</time>
      </trkpt>
      <trkpt lat="50.13293" lon="3.75895">
        <ele>140.97</ele>
        <time>2015-04-05T09:06:26Z</time>
      </trkpt>
      <trkpt lat="50.13293" lon="3.75898">
        <ele>140.97</ele>
        <time>2015-04-05T09:06:27Z</time>
      </trkpt>
      <trkpt lat="50.13294" lon="3.75902">
        <ele>140.97</ele>
        <time>2015-04-05T09:06:28Z</time>
      </trkpt>
      <trkpt lat="50.13294" lon="3.75905">
        <ele>140.97</ele>
        <time>2015-04-05T09:06:29Z</time>
      </trkpt>
      <trkpt lat="50.133" lon="3.75961">
        <ele>140.97</ele>
        <time>2015-04-05T09:06:41Z</time>
      </trkpt>
      <trkpt lat="50.13298" lon="3.75967">
        <ele>140.97</ele>
        <time>2015-04-05T09:06:42Z</time>
      </trkpt>
      <trkpt lat="50.13294" lon="3.75971">
        <ele>140.01</ele>
        <time>2015-04-05T09:06:43Z</time>
      </trkpt>
      <trkpt lat="50.13289" lon="3.75975">
        <ele>140.01</ele>
        <time>2015-04-05T09:06:44Z</time>
      </trkpt>
      <trkpt lat="50.13285" lon="3.75978">
        <ele>139.05</ele>
        <time>2015-04-05T09:06:45Z</time>
      </trkpt>
      <trkpt lat="50.13281" lon="3.75983">
        <ele>139.05</ele>
        <time>2015-04-05T09:06:46Z</time>
      </trkpt>
      <trkpt lat="50.13288" lon="3.76008">
        <ele>138.57</ele>
        <time>2015-04-05T09:06:51Z</time>
      </trkpt>
      <trkpt lat="50.13301" lon="3.76017">
        <ele>140.01</ele>
        <time>2015-04-05T09:06:57Z</time>
      </trkpt>
      <trkpt lat="50.13303" lon="3.76036">
        <ele>140.49</ele>
        <time>2015-04-05T09:07:03Z</time>
      </trkpt>
      <trkpt lat="50.13294" lon="3.76088">
        <ele>139.53</ele>
        <time>2015-04-05T09:07:16Z</time>
      </trkpt>
      <trkpt lat="50.13287" lon="3.76132">
        <ele>140.97</ele>
        <time>2015-04-05T09:07:29Z</time>
      </trkpt>
      <trkpt lat="50.13286" lon="3.76163">
        <ele>141.93</ele>
        <time>2015-04-05T09:07:41Z</time>
      </trkpt>
      <trkpt lat="50.13282" lon="3.76169">
        <ele>141.93</ele>
        <time>2015-04-05T09:07:43Z</time>
      </trkpt>
      <trkpt lat="50.13279" lon="3.76172">
        <ele>141.93</ele>
        <time>2015-04-05T09:07:44Z</time>
      </trkpt>
      <trkpt lat="50.13267" lon="3.76181">
        <ele>140.49</ele>
        <time>2015-04-05T09:07:47Z</time>
      </trkpt>
      <trkpt lat="50.13241" lon="3.76203">
        <ele>138.57</ele>
        <time>2015-04-05T09:07:52Z</time>
      </trkpt>
      <trkpt lat="50.13236" lon="3.7621">
        <ele>138.57</ele>
        <time>2015-04-05T09:07:53Z</time>
      </trkpt>
      <trkpt lat="50.13231" lon="3.76217">
        <ele>138.57</ele>
        <time>2015-04-05T09:07:54Z</time>
      </trkpt>
      <trkpt lat="50.13207" lon="3.76263">
        <ele>138.09</ele>
        <time>2015-04-05T09:08:01Z</time>
      </trkpt>
      <trkpt lat="50.13204" lon="3.76268">
        <ele>138.09</ele>
        <time>2015-04-05T09:08:02Z</time>
      </trkpt>
      <trkpt lat="50.132" lon="3.76271">
        <ele>138.09</ele>
        <time>2015-04-05T09:08:03Z</time>
      </trkpt>
      <trkpt lat="50.13197" lon="3.76273">
        <ele>138.09</ele>
        <time>2015-04-05T09:08:04Z</time>
      </trkpt>
      <trkpt lat="50.13193" lon="3.76275">
        <ele>138.09</ele>
        <time>2015-04-05T09:08:05Z</time>
      </trkpt>
      <trkpt lat="50.1319" lon="3.76277">
        <ele>138.09</ele>
        <time>2015-04-05T09:08:06Z</time>
      </trkpt>
      <trkpt lat="50.13187" lon="3.7628">
        <ele>138.09</ele>
        <time>2015-04-05T09:08:07Z</time>
      </trkpt>
      <trkpt lat="50.13185" lon="3.76284">
        <ele>138.09</ele>
        <time>2015-04-05T09:08:08Z</time>
      </trkpt>
      <trkpt lat="50.13183" lon="3.76287">
        <ele>138.09</ele>
        <time>2015-04-05T09:08:09Z</time>
      </trkpt>
      <trkpt lat="50.13182" lon="3.7629">
        <ele>138.09</ele>
        <time>2015-04-05T09:08:10Z</time>
      </trkpt>
      <trkpt lat="50.13181" lon="3.76293">
        <ele>138.09</ele>
        <time>2015-04-05T09:08:11Z</time>
      </trkpt>
      <trkpt lat="50.1318" lon="3.76296">
        <ele>138.09</ele>
        <time>2015-04-05T09:08:12Z</time>
      </trkpt>
      <trkpt lat="50.13178" lon="3.76298">
        <ele>138.09</ele>
        <time>2015-04-05T09:08:13Z</time>
      </trkpt>
      <trkpt lat="50.13177" lon="3.76301">
        <ele>138.09</ele>
        <time>2015-04-05T09:08:14Z</time>
      </trkpt>
      <trkpt lat="50.13157" lon="3.76332">
        <ele>138.57</ele>
        <time>2015-04-05T09:08:25Z</time>
      </trkpt>
      <trkpt lat="50.13131" lon="3.76375">
        <ele>138.57</ele>
        <time>2015-04-05T09:08:39Z</time>
      </trkpt>
      <trkpt lat="50.13128" lon="3.76391">
        <ele>140.01</ele>
        <time>2015-04-05T09:08:43Z</time>
      </trkpt>
      <trkpt lat="50.1313" lon="3.76411">
        <ele>140.49</ele>
        <time>2015-04-05T09:08:49Z</time>
      </trkpt>
      <trkpt lat="50.13139" lon="3.76416">
        <ele>140.97</ele>
        <time>2015-04-05T09:08:53Z</time>
      </trkpt>
      <trkpt lat="50.13153" lon="3.76423">
        <ele>140.97</ele>
        <time>2015-04-05T09:08:59Z</time>
      </trkpt>
      <trkpt lat="50.1317" lon="3.76399">
        <ele>141.93</ele>
        <time>2015-04-05T09:09:07Z</time>
      </trkpt>
      <trkpt lat="50.13205" lon="3.76356">
        <ele>143.85</ele>
        <time>2015-04-05T09:09:23Z</time>
      </trkpt>
      <trkpt lat="50.13229" lon="3.76344">
        <ele>146.74</ele>
        <time>2015-04-05T09:09:35Z</time>
      </trkpt>
      <trkpt lat="50.13256" lon="3.76342">
        <ele>149.62</ele>
        <time>2015-04-05T09:09:48Z</time>
      </trkpt>
      <trkpt lat="50.1328" lon="3.76356">
        <ele>152.03</ele>
        <time>2015-04-05T09:09:59Z</time>
      </trkpt>
      <trkpt lat="50.13296" lon="3.76364">
        <ele>152.99</ele>
        <time>2015-04-05T09:10:05Z</time>
      </trkpt>
      <trkpt lat="50.13299" lon="3.76363">
        <ele>152.99</ele>
        <time>2015-04-05T09:10:06Z</time>
      </trkpt>
      <trkpt lat="50.13302" lon="3.76361">
        <ele>152.99</ele>
        <time>2015-04-05T09:10:07Z</time>
      </trkpt>
      <trkpt lat="50.13305" lon="3.7636">
        <ele>152.99</ele>
        <time>2015-04-05T09:10:08Z</time>
      </trkpt>
      <trkpt lat="50.13308" lon="3.76359">
        <ele>152.99</ele>
        <time>2015-04-05T09:10:09Z</time>
      </trkpt>
      <trkpt lat="50.13344" lon="3.76351">
        <ele>155.87</ele>
        <time>2015-04-05T09:10:21Z</time>
      </trkpt>
      <trkpt lat="50.13375" lon="3.76353">
        <ele>157.31</ele>
        <time>2015-04-05T09:10:33Z</time>
      </trkpt>
      <trkpt lat="50.13413" lon="3.76383">
        <ele>157.79</ele>
        <time>2015-04-05T09:10:50Z</time>
      </trkpt>
      <trkpt lat="50.13422" lon="3.76389">
        <ele>158.27</ele>
        <time>2015-04-05T09:10:56Z</time>
      </trkpt>
      <trkpt lat="50.13423" lon="3.76391">
        <ele>158.27</ele>
        <time>2015-04-05T09:10:57Z</time>
      </trkpt>
      <trkpt lat="50.13423" lon="3.76393">
        <ele>158.27</ele>
        <time>2015-04-05T09:10:58Z</time>
      </trkpt>
      <trkpt lat="50.13424" lon="3.76395">
        <ele>158.27</ele>
        <time>2015-04-05T09:10:59Z</time>
      </trkpt>
      <trkpt lat="50.13424" lon="3.76397">
        <ele>158.27</ele>
        <time>2015-04-05T09:11:00Z</time>
      </trkpt>
      <trkpt lat="50.13425" lon="3.76399">
        <ele>158.27</ele>
        <time>2015-04-05T09:11:01Z</time>
      </trkpt>
      <trkpt lat="50.13429" lon="3.76411">
        <ele>158.27</ele>
        <time>2015-04-05T09:11:06Z</time>
      </trkpt>
      <trkpt lat="50.13431" lon="3.76421">
        <ele>158.75</ele>
        <time>2015-04-05T09:11:17Z</time>
      </trkpt>
    </trkseg>
  </trk>
</gpx>